M I D A S
Marine Information and Data Acquisition System
Tripno 517 of the Zeeleeuw from 2003-06-17 06:38:05 to 2003-06-17 13:34:09
Back to CruiseResearch ActivitiesStationsMapUnderway DataData graphs

EquipmentUnitsComment
TimeDGPSUTC
LatitudeDGPSDM.mWGS84
LongitudeDGPSDM.mWGS84
TemperatureSBE03/SBE38deg celciusITS90
ConductivitySBE21S/mITS90
SalinitySBE21 Practical Salinity Units
ChlorophylAChelsea fluorimeterg/lCalibrated in Aceton
Missing or incorrect values are displayed as -999
Sea surface data collected by the RV Zeeleeuw from 2003-06-17 06:38:05 to 2003-06-17 13:34:09
                                                                                    Next 1000 lines
Time Latitude Longitude Temperature Conductivity Salinity ChlorophylA
2003-06-17 06:38:13 51°13.61 2°56.09 -999 0.030148 0.145961 -0.781249
2003-06-17 06:38:17 51°13.61 2°56.09 -999 0.030148 0.145963 -0.74754
2003-06-17 06:38:25 51°13.61 2°56.09 -999 0.030148 0.145967 -0.781249
2003-06-17 06:38:29 51°13.61 2°56.09 -999 0.030148 0.145967 -0.781249
2003-06-17 06:38:33 51°13.61 2°56.09 -999 0.030148 0.145968 -0.74754
2003-06-17 06:38:39 51°13.61 2°56.09 -999 0.030148 0.145967 -0.781249
2003-06-17 06:38:45 51°13.61 2°56.09 -999 0.030044 0.145472 -0.781249
2003-06-17 06:38:49 51°13.61 2°56.09 -999 0.030044 0.145473 -0.74754
2003-06-17 06:38:53 51°13.61 2°56.09 -999 0.030148 0.145976 -0.74754
2003-06-17 06:38:57 51°13.61 2°56.09 -999 0.030148 0.145976 -0.74754
2003-06-17 06:39:05 51°13.61 2°56.09 -999 0.030044 0.145475 -0.781249
2003-06-17 06:39:09 51°13.61 2°56.09 -999 0.030148 0.145978 -0.74754
2003-06-17 06:39:13 51°13.61 2°56.09 -999 0.030148 0.14598 -0.74754
2003-06-17 06:39:19 51°13.61 2°56.09 -999 0.030148 0.145982 -0.74754
2003-06-17 06:39:25 51°13.61 2°56.09 -999 0.030148 0.145983 -0.814958
2003-06-17 06:39:29 51°13.61 2°56.09 -999 0.030148 0.145983 -0.814958
2003-06-17 06:39:33 51°13.61 2°56.09 -999 0.030148 0.145983 -0.781249
2003-06-17 06:39:37 51°13.61 2°56.09 -999 0.030148 0.145985 -0.781249
2003-06-17 06:39:43 51°13.61 2°56.09 -999 0.030148 0.145987 -0.814958
2003-06-17 06:39:49 51°13.61 2°56.09 -999 0.030148 0.145989 -0.71383
2003-06-17 06:39:53 51°13.61 2°56.09 -999 0.324279 1.711203 -0.612702
2003-06-17 06:39:59 51°13.61 2°56.09 -999 0.324279 1.711203 -0.612702
2003-06-17 06:40:05 51°13.61 2°56.09 -999 0.20637 1.066847 1.308734
2003-06-17 06:40:09 51°13.61 2°56.09 -999 4.254364 27.867163 2.589691
2003-06-17 06:40:13 51°13.61 2°56.09 -999 3.683505 24.05027 4.713383
2003-06-17 06:40:17 51°13.61 2°56.09 -999 3.975272 26.800121 4.780802
2003-06-17 06:40:25 51°13.61 2°56.09 -999 4.14756 28.213235 11.320426
2003-06-17 06:40:29 51°13.61 2°56.09 -999 4.14756 28.213235 11.320426
2003-06-17 06:40:33 51°13.61 2°56.09 -999 4.225497 29.069924 12.196871
2003-06-17 06:40:39 51°13.61 2°56.09 -999 4.170452 28.810876 9.904631
2003-06-17 06:40:45 51°13.61 2°56.08 -999 4.096429 28.371513 8.151742
2003-06-17 06:40:49 51°13.61 2°56.08 -999 4.113408 28.601971 7.612392
2003-06-17 06:40:53 51°13.61 2°56.08 -999 4.082514 28.432092 7.207879
2003-06-17 06:40:57 51°13.61 2°56.08 -999 4.082514 28.432092 7.207879
2003-06-17 06:41:05 51°13.61 2°56.07 -999 4.066594 28.350384 7.005623
2003-06-17 06:41:09 51°13.61 2°56.07 -999 4.033488 28.149258 6.904494
2003-06-17 06:41:15 51°13.61 2°56.07 -999 4.044875 28.264726 6.938204
2003-06-17 06:41:21 51°13.61 2°56.06 -999 4.042767 28.273118 6.803366
2003-06-17 06:41:25 51°13.61 2°56.06 -999 4.033911 28.231746 6.904494
2003-06-17 06:41:31 51°13.61 2°56.06 -999 4.033911 28.231746 6.904494
2003-06-17 06:41:37 51°13.61 2°56.05 -999 4.033806 28.250231 6.837076
2003-06-17 06:41:41 51°13.61 2°56.05 -999 4.009662 28.079116 6.837076
2003-06-17 06:41:47 51°13.61 2°56.04 -999 4.036231 28.29816 8.387708
2003-06-17 06:41:53 51°13.62 2°56.03 -999 4.036865 28.334975 10.376563
2003-06-17 06:41:57 51°13.62 2°56.03 -999 4.042032 28.438024 11.960905
2003-06-17 06:42:03 51°13.62 2°56.02 -999 4.042032 28.438024 11.960905
2003-06-17 06:42:07 51°13.62 2°56.01 -999 4.046462 28.538124 13.241862
2003-06-17 06:42:13 51°13.62 2°56.01 -999 4.025376 28.434797 14.421691
2003-06-17 06:42:19 51°13.62 2°56 -999 4.031493 28.545375 15.432973
2003-06-17 06:42:23 51°13.62 2°55.99 -999 4.046782 28.717067 16.477965
2003-06-17 06:42:29 51°13.62 2°55.98 -999 4.050789 28.809734 16.848768
2003-06-17 06:42:33 51°13.62 2°55.97 -999 4.050789 28.809734 16.848768
2003-06-17 06:42:39 51°13.63 2°55.97 -999 4.051212 28.83699 17.253281
2003-06-17 06:42:43 51°13.63 2°55.96 -999 4.04594 28.821549 17.927469
2003-06-17 06:42:49 51°13.63 2°55.95 -999 4.02148 28.652945 18.062306
2003-06-17 06:42:53 51°13.63 2°55.94 -999 4.060808 29.001175 17.994888
2003-06-17 06:42:59 51°13.64 2°55.93 -999 4.044044 28.889121 18.635366
2003-06-17 06:43:03 51°13.64 2°55.93 -999 4.044044 28.889121 18.635366
2003-06-17 06:43:09 51°13.64 2°55.92 -999 4.049 28.948326 18.871332
2003-06-17 06:43:13 51°13.64 2°55.91 -999 4.040355 28.898832 19.141007
2003-06-17 06:43:19 51°13.65 2°55.9 -999 4.033396 28.858389 18.837623
2003-06-17 06:43:23 51°13.65 2°55.9 -999 4.032131 28.860377 18.97246
2003-06-17 06:43:29 51°13.65 2°55.89 -999 4.029179 28.842169 19.00617
2003-06-17 06:43:33 51°13.65 2°55.88 -999 4.029179 28.842169 19.00617
2003-06-17 06:43:39 51°13.66 2°55.87 -999 4.027914 28.842706 19.073589
2003-06-17 06:43:43 51°13.66 2°55.87 -999 4.030023 28.869658 19.57923
2003-06-17 06:43:49 51°13.66 2°55.86 -999 4.03171 28.892784 19.54552
2003-06-17 06:43:53 51°13.67 2°55.85 -999 4.035611 28.936504 19.747777
2003-06-17 06:43:59 51°13.67 2°55.84 -999 4.040989 28.992057 19.983742
2003-06-17 06:44:03 51°13.67 2°55.84 -999 4.040989 28.992057 19.983742
2003-06-17 06:44:09 51°13.67 2°55.83 -999 4.043203 29.01996 19.815195
2003-06-17 06:44:13 51°13.68 2°55.82 -999 4.043836 29.026962 19.916324
2003-06-17 06:44:19 51°13.68 2°55.81 -999 4.040567 29.007662 19.781486
2003-06-17 06:44:23 51°13.68 2°55.81 -999 4.044469 29.051028 19.983742
2003-06-17 06:44:29 51°13.68 2°55.8 -999 4.047527 29.084269 19.714067
2003-06-17 06:44:33 51°13.69 2°55.79 -999 4.047527 29.084269 19.714067
2003-06-17 06:44:39 51°13.69 2°55.79 -999 4.050584 29.115087 19.848905
2003-06-17 06:44:43 51°13.69 2°55.78 -999 4.050479 29.124031 20.253418
2003-06-17 06:44:49 51°13.69 2°55.78 -999 4.056911 29.183369 19.916324
2003-06-17 06:44:53 51°13.69 2°55.77 -999 4.060602 29.219805 20.017452
2003-06-17 06:44:57 51°13.69 2°55.77 -999 4.067982 29.287321 20.287127
2003-06-17 06:45:01 51°13.69 2°55.77 -999 4.067982 29.287321 20.287127
2003-06-17 06:45:05 51°13.7 2°55.77 -999 4.076418 29.357421 20.152289
2003-06-17 06:45:11 51°13.7 2°55.77 -999 4.084642 29.426359 19.950033
2003-06-17 06:45:15 51°13.7 2°55.77 -999 4.091812 29.490346 20.354546
2003-06-17 06:45:19 51°13.7 2°55.77 -999 4.098139 29.547603 20.152289
2003-06-17 06:45:25 51°13.7 2°55.77 -999 4.09951 29.567577 20.354546
2003-06-17 06:45:29 51°13.7 2°55.77 -999 4.09951 29.567577 20.354546
2003-06-17 06:45:33 51°13.7 2°55.77 -999 4.104572 29.614229 20.320836
2003-06-17 06:45:39 51°13.7 2°55.78 -999 4.101619 29.593994 20.287127
2003-06-17 06:45:45 51°13.7 2°55.78 -999 4.096769 29.559998 20.219708
2003-06-17 06:45:49 51°13.71 2°55.78 -999 4.102779 29.612301 20.287127
2003-06-17 06:45:53 51°13.71 2°55.78 -999 4.099194 29.583979 20.11858
2003-06-17 06:45:57 51°13.71 2°55.78 -999 4.099194 29.583979 20.11858
2003-06-17 06:46:05 51°13.71 2°55.78 -999 4.088439 29.497539 20.017452
2003-06-17 06:46:09 51°13.71 2°55.78 -999 4.083483 29.457224 20.253418
2003-06-17 06:46:13 51°13.71 2°55.79 -999 4.076735 29.403514 19.916324
2003-06-17 06:46:17 51°13.71 2°55.79 -999 4.06714 29.323991 20.320836
2003-06-17 06:46:25 51°13.72 2°55.79 -999 4.046579 29.15703 20.287127
2003-06-17 06:46:29 51°13.72 2°55.78 -999 4.046579 29.15703 20.287127
2003-06-17 06:46:33 51°13.72 2°55.78 -999 4.039726 29.098632 20.185999
2003-06-17 06:46:39 51°13.72 2°55.78 -999 4.033083 29.043912 20.185999
2003-06-17 06:46:45 51°13.72 2°55.78 -999 4.026441 28.987257 20.354546
2003-06-17 06:46:49 51°13.72 2°55.78 -999 4.024016 28.96734 20.421965
2003-06-17 06:46:53 51°13.72 2°55.78 -999 4.020642 28.940799 20.253418
2003-06-17 06:46:59 51°13.71 2°55.78 -999 4.020642 28.940799 20.253418
2003-06-17 06:47:05 51°13.71 2°55.78 -999 4.001032 28.784251 20.354546
2003-06-17 06:47:11 51°13.71 2°55.77 -999 4.026757 28.992234 20.455674
2003-06-17 06:47:15 51°13.71 2°55.77 -999 4.027812 29.002638 20.421965
2003-06-17 06:47:21 51°13.71 2°55.77 -999 4.027917 29.004949 20.455674
2003-06-17 06:47:27 51°13.7 2°55.77 -999 4.024754 28.981554 20.455674
2003-06-17 06:47:31 51°13.7 2°55.77 -999 4.024754 28.981554 20.455674
2003-06-17 06:47:37 51°13.7 2°55.76 -999 4.026547 28.997385 20.421965
2003-06-17 06:47:43 51°13.7 2°55.76 -999 4.026019 28.993159 20.590512
2003-06-17 06:47:47 51°13.69 2°55.76 -999 4.029604 29.023361 20.725349
2003-06-17 06:47:53 51°13.69 2°55.76 -999 4.040042 29.112944 20.69164
2003-06-17 06:47:57 51°13.69 2°55.76 -999 4.051641 29.212401 21.028734
2003-06-17 06:48:03 51°13.69 2°55.76 -999 4.051641 29.212401 21.028734
2003-06-17 06:48:09 51°13.69 2°55.76 -999 4.062606 29.307854 20.65793
2003-06-17 06:48:13 51°13.69 2°55.75 -999 4.054488 29.250055 20.725349
2003-06-17 06:48:19 51°13.69 2°55.75 -999 4.079266 29.453143 20.725349
2003-06-17 06:48:23 51°13.69 2°55.75 -999 4.089705 29.541583 20.893896
2003-06-17 06:48:29 51°13.69 2°55.75 -999 4.100882 29.637029 21.028734
2003-06-17 06:48:33 51°13.7 2°55.75 -999 4.100882 29.637029 21.028734
2003-06-17 06:48:39 51°13.7 2°55.75 -999 4.107631 29.697381 21.163571
2003-06-17 06:48:43 51°13.7 2°55.74 -999 4.118281 29.787703 21.298409
2003-06-17 06:48:49 51°13.71 2°55.74 -999 4.124608 29.844747 21.2647
2003-06-17 06:48:53 51°13.71 2°55.74 -999 4.129142 29.88181 21.2647
2003-06-17 06:48:59 51°13.72 2°55.73 -999 4.129775 29.889439 21.298409
2003-06-17 06:49:03 51°13.72 2°55.73 -999 4.129775 29.889439 21.298409
2003-06-17 06:49:07 51°13.72 2°55.72 -999 4.127877 29.872112 21.129862
2003-06-17 06:49:11 51°13.73 2°55.72 -999 4.129142 29.883831 21.2647
2003-06-17 06:49:15 51°13.73 2°55.72 -999 4.129564 29.888243 21.365828
2003-06-17 06:49:21 51°13.74 2°55.71 -999 4.126717 29.865284 21.298409
2003-06-17 06:49:25 51°13.74 2°55.7 -999 4.122921 29.831649 21.298409
2003-06-17 06:49:29 51°13.75 2°55.7 -999 4.122921 29.831649 21.298409
2003-06-17 06:49:33 51°13.75 2°55.69 -999 4.116594 29.779644 21.096153
2003-06-17 06:49:39 51°13.76 2°55.69 -999 4.111427 29.737001 21.433247
2003-06-17 06:49:45 51°13.77 2°55.68 -999 4.110056 29.723946 21.433247
2003-06-17 06:49:49 51°13.78 2°55.67 -999 4.108474 29.709697 21.197281
2003-06-17 06:49:53 51°13.78 2°55.67 -999 4.109107 29.714794 21.298409
2003-06-17 06:49:57 51°13.79 2°55.66 -999 4.109107 29.714794 21.298409
2003-06-17 06:50:03 51°13.8 2°55.65 -999 4.107947 29.70545 21.163571
2003-06-17 06:50:09 51°13.81 2°55.65 -999 4.104889 29.68132 21.163571
2003-06-17 06:50:13 51°13.82 2°55.64 -999 4.101199 29.649091 21.298409
2003-06-17 06:50:19 51°13.83 2°55.63 -999 4.09445 29.593253 21.096153
2003-06-17 06:50:25 51°13.84 2°55.62 -999 4.08264 29.495214 20.927606
2003-06-17 06:50:29 51°13.84 2°55.62 -999 4.08264 29.495214 20.927606
2003-06-17 06:50:33 51°13.85 2°55.61 -999 4.075049 29.428176 20.961315
2003-06-17 06:50:39 51°13.86 2°55.61 -999 4.067141 29.362607 20.759059
2003-06-17 06:50:45 51°13.87 2°55.6 -999 4.051746 29.233465 20.927606
2003-06-17 06:50:49 51°13.88 2°55.59 -999 4.041097 29.143024 20.826477
2003-06-17 06:50:53 51°13.89 2°55.59 -999 4.022119 28.984857 20.893896
2003-06-17 06:50:59 51°13.9 2°55.58 -999 4.022119 28.984857 20.893896
2003-06-17 06:51:05 51°13.91 2°55.57 -999 4.009256 28.873927 20.69164
2003-06-17 06:51:09 51°13.92 2°55.56 -999 3.997131 28.772417 20.927606
2003-06-17 06:51:13 51°13.93 2°55.56 -999 3.987116 28.686896 20.455674
2003-06-17 06:51:19 51°13.94 2°55.55 -999 3.97847 28.612887 20.759059
2003-06-17 06:51:25 51°13.95 2°55.54 -999 3.973094 28.568913 20.725349
2003-06-17 06:51:29 51°13.96 2°55.54 -999 3.973094 28.568913 20.725349
2003-06-17 06:51:33 51°13.96 2°55.53 -999 3.973199 28.56783 20.489383
2003-06-17 06:51:39 51°13.98 2°55.52 -999 3.979103 28.616501 20.421965
2003-06-17 06:51:45 51°13.99 2°55.51 -999 3.987748 28.687608 20.523093
2003-06-17 06:51:49 51°14 2°55.51 -999 4.001981 28.807863 20.523093
2003-06-17 06:51:53 51°14 2°55.5 -999 4.022013 28.974236 20.624221
2003-06-17 06:51:59 51°14.01 2°55.49 -999 4.022013 28.974236 20.624221
2003-06-17 06:52:05 51°14.03 2°55.49 -999 4.035403 29.088487 20.523093
2003-06-17 06:52:09 51°14.03 2°55.48 -999 4.054593 29.251395 20.523093
2003-06-17 06:52:13 51°14.04 2°55.47 -999 4.072413 29.405489 20.69164
2003-06-17 06:52:19 51°14.05 2°55.47 -999 4.086226 29.524559 20.759059
2003-06-17 06:52:25 51°14.07 2°55.46 -999 4.096348 29.615038 20.893896
2003-06-17 06:52:29 51°14.07 2°55.45 -999 4.096348 29.615038 20.893896
2003-06-17 06:52:33 51°14.08 2°55.45 -999 4.109634 29.728084 20.759059
2003-06-17 06:52:39 51°14.09 2°55.44 -999 4.117227 29.794816 20.624221
2003-06-17 06:52:45 51°14.11 2°55.43 -999 4.125663 29.869406 20.927606
2003-06-17 06:52:49 51°14.11 2°55.42 -999 4.130092 29.909183 20.927606
2003-06-17 06:52:53 51°14.12 2°55.42 -999 4.132306 29.930091 20.995024
2003-06-17 06:52:57 51°14.13 2°55.41 -999 4.132306 29.930091 20.995024
2003-06-17 06:53:05 51°14.15 2°55.4 -999 4.133255 29.939777 20.860187
2003-06-17 06:53:09 51°14.16 2°55.39 -999 4.133466 29.94148 20.927606
2003-06-17 06:53:13 51°14.16 2°55.39 -999 4.133255 29.939271 21.096153
2003-06-17 06:53:19 51°14.18 2°55.37 -999 4.134204 29.948958 20.961315
2003-06-17 06:53:25 51°14.19 2°55.36 -999 4.134837 29.951025 20.826477
2003-06-17 06:53:29 51°14.2 2°55.35 -999 4.134837 29.951025 20.826477
2003-06-17 06:53:33 51°14.21 2°55.35 -999 4.126717 29.884484 20.69164
2003-06-17 06:53:37 51°14.21 2°55.34 -999 4.128088 29.893523 20.624221
2003-06-17 06:53:45 51°14.23 2°55.32 -999 4.125346 29.86938 20.489383
2003-06-17 06:53:49 51°14.24 2°55.31 -999 4.123765 29.855105 20.253418
2003-06-17 06:53:53 51°14.25 2°55.3 -999 4.122816 29.845935 20.152289
2003-06-17 06:53:59 51°14.26 2°55.28 -999 4.122816 29.845935 20.152289
2003-06-17 06:54:05 51°14.27 2°55.26 -999 4.119019 29.815319 20.185999
2003-06-17 06:54:09 51°14.27 2°55.25 -999 4.111427 29.751081 20.185999
2003-06-17 06:54:13 51°14.28 2°55.24 -999 4.101304 29.664978 20.084871
2003-06-17 06:54:17 51°14.29 2°55.23 41.943985 4.088967 29.561105 20.084871
2003-06-17 06:54:25 51°14.3 2°55.2 44.272971 4.070093 29.406205 20.253418
2003-06-17 06:54:29 51°14.31 2°55.19 44.272971 4.070093 29.406205 20.253418
2003-06-17 06:54:33 51°14.32 2°55.17 45.319258 4.06693 29.376786 20.421965
2003-06-17 06:54:37 51°14.32 2°55.16 44.915558 4.05744 29.297504 20.590512
2003-06-17 06:54:45 51°14.33 2°55.13 44.915646 4.044577 29.190172 20.523093
2003-06-17 06:54:49 51°14.34 2°55.11 44.003267 3.915324 28.151467 20.590512
2003-06-17 06:54:53 51°14.34 2°55.1 45.86417 4.037723 29.131673 20.69164
2003-06-17 06:54:59 51°14.35 2°55.07 45.86417 4.037723 29.131673 20.69164
2003-06-17 06:55:05 51°14.36 2°55.05 45.284247 4.033506 29.095349 20.759059
2003-06-17 06:55:09 51°14.36 2°55.03 45.751558 4.031292 29.079045 20.489383
2003-06-17 06:55:15 51°14.37 2°55.01 44.454993 4.033084 29.092945 20.590512
2003-06-17 06:55:19 51°14.37 2°54.99 44.424011 4.038989 29.144296 20.65793
2003-06-17 06:55:25 51°14.38 2°54.96 45.140317 4.048267 29.222784 20.759059
2003-06-17 06:55:29 51°14.38 2°54.95 45.140317 4.048267 29.222784 20.759059
2003-06-17 06:55:33 51°14.38 2°54.93 45.6615 4.061236 29.330996 20.65793
2003-06-17 06:55:37 51°14.39 2°54.91 45.105699 4.076631 29.459802 20.725349
2003-06-17 06:55:45 51°14.4 2°54.87 41.775707 4.089178 29.564802 20.624221
2003-06-17 06:55:49 51°14.4 2°54.85 40.934165 4.094872 29.611659 20.69164
2003-06-17 06:55:53 51°14.41 2°54.84 41.159666 4.100777 29.662235 20.65793
2003-06-17 06:55:57 51°14.41 2°54.82 41.159666 4.100777 29.662235 20.65793
2003-06-17 06:56:05 51°14.42 2°54.78 41.138924 4.106049 29.706226 20.624221
2003-06-17 06:56:09 51°14.42 2°54.76 41.70483 4.111322 29.752243 20.826477
2003-06-17 06:56:13 51°14.42 2°54.74 40.042 4.115961 29.792171 21.062443
2003-06-17 06:56:19 51°14.42 2°54.71 41.337549 4.13083 29.918683 21.23099
2003-06-17 06:56:25 51°14.42 2°54.68 43.438509 4.147386 30.060986 21.80405
2003-06-17 06:56:29 51°14.42 2°54.66 43.438509 4.147386 30.060986 21.80405
2003-06-17 06:56:33 51°14.43 2°54.64 40.549594 4.178389 30.33418 22.444529
2003-06-17 06:56:39 51°14.43 2°54.61 41.704069 4.211504 30.62209 22.747913
2003-06-17 06:56:45 51°14.43 2°54.57 43.379566 4.240717 30.884274 23.354683
2003-06-17 06:56:49 51°14.43 2°54.55 43.673453 4.263709 31.088592 23.085007
2003-06-17 06:56:53 51°14.43 2°54.53 43.290878 4.280901 31.240737 23.219845
2003-06-17 06:56:57 51°14.43 2°54.51 43.290878 4.280901 31.240737 23.219845
2003-06-17 06:57:05 51°14.43 2°54.47 40.933213 4.292292 31.348469 23.152426
2003-06-17 06:57:09 51°14.43 2°54.45 43.04746 4.304527 31.460021 23.017589
2003-06-17 06:57:13 51°14.43 2°54.42 42.653967 4.314125 31.550174 22.95017
2003-06-17 06:57:19 51°14.43 2°54.39 43.367724 4.321192 31.614352 22.983879
2003-06-17 06:57:25 51°14.43 2°54.36 41.68599 4.326888 31.670064 23.051298
2003-06-17 06:57:29 51°14.43 2°54.34 41.68599 4.326888 31.670064 23.051298
2003-06-17 06:57:33 51°14.42 2°54.32 44.116072 4.336381 31.752546 22.983879
2003-06-17 06:57:37 51°14.42 2°54.29 44.991607 4.346402 31.833427 22.983879
2003-06-17 06:57:45 51°14.41 2°54.25 43.515547 4.354313 31.903597 23.253554
2003-06-17 06:57:49 51°14.4 2°54.23 44.151275 4.361485 31.972674 23.826614
2003-06-17 06:57:53 51°14.4 2°54.21 44.77581 4.370557 32.059563 24.129999
2003-06-17 06:57:59 51°14.39 2°54.19 44.77581 4.370557 32.059563 24.129999
2003-06-17 06:58:05 51°14.38 2°54.16 43.30888 4.379523 32.144036 24.365965
2003-06-17 06:58:09 51°14.37 2°54.14 43.030659 4.384165 32.192002 24.669349
2003-06-17 06:58:13 51°14.36 2°54.12 41.701969 4.387329 32.228433 24.264836
2003-06-17 06:58:19 51°14.35 2°54.09 41.191335 4.389545 32.249926 24.399674
2003-06-17 06:58:25 51°14.34 2°54.06 42.521092 4.390705 32.263866 24.06258
2003-06-17 06:58:29 51°14.34 2°54.04 42.521092 4.390705 32.263866 24.06258
2003-06-17 06:58:33 51°14.33 2°54.02 42.803449 4.391549 32.270796 24.231127
2003-06-17 06:58:39 51°14.32 2°53.99 42.368897 4.392815 32.2834 23.961452
2003-06-17 06:58:45 51°14.3 2°53.96 42.643316 4.391127 32.26678 24.028871
2003-06-17 06:58:49 51°14.3 2°53.94 44.120181 4.392604 32.281668 24.096289
2003-06-17 06:58:53 51°14.29 2°53.92 44.401003 4.394397 32.296397 24.163708
2003-06-17 06:58:57 51°14.28 2°53.9 44.401003 4.394397 32.296397 24.163708
2003-06-17 06:59:05 51°14.26 2°53.86 45.197807 4.397351 32.323976 24.703059
2003-06-17 06:59:09 51°14.25 2°53.84 44.152369 4.406845 32.40698 24.399674
2003-06-17 06:59:13 51°14.24 2°53.82 44.415439 4.414123 32.472375 24.736768
2003-06-17 06:59:17 51°14.24 2°53.8 44.45623 4.417816 32.509415 24.703059
2003-06-17 06:59:25 51°14.22 2°53.76 43.42137 4.422352 32.55175 24.736768
2003-06-17 06:59:29 51°14.21 2°53.74 43.42137 4.422352 32.55175 24.736768
2003-06-17 06:59:33 51°14.2 2°53.72 45.601941 4.427943 32.605579 24.63564
2003-06-17 06:59:39 51°14.19 2°53.69 47.093429 4.43174 32.640761 24.770477
2003-06-17 06:59:45 51°14.18 2°53.66 44.608706 4.434694 32.671802 24.837896
2003-06-17 06:59:49 51°14.17 2°53.64 45.55574 4.439653 32.718817 24.837896
2003-06-17 06:59:55 51°14.16 2°53.61 45.757966 4.442395 32.744789 24.669349
2003-06-17 06:59:59 51°14.15 2°53.59 45.757966 4.442395 32.744789 24.669349
2003-06-17 07:00:05 51°14.13 2°53.56 47.174976 4.446721 32.787187 24.736768
2003-06-17 07:00:09 51°14.13 2°53.54 45.966511 4.451257 32.832475 25.006443
2003-06-17 07:00:13 51°14.12 2°53.52 44.059526 4.455055 32.870007 24.837896
2003-06-17 07:00:19 51°14.1 2°53.49 45.45273 4.459486 32.918431 24.837896
2003-06-17 07:00:25 51°14.09 2°53.46 43.836816 4.463495 32.960017 24.770477
2003-06-17 07:00:29 51°14.08 2°53.44 43.836816 4.463495 32.960017 24.770477
2003-06-17 07:00:33 51°14.07 2°53.42 43.660761 4.463811 32.96546 24.804187
2003-06-17 07:00:37 51°14.06 2°53.4 43.988109 4.467609 33.007036 24.568221
2003-06-17 07:00:45 51°14.04 2°53.36 43.18455 4.469614 33.031544 24.534512
2003-06-17 07:00:49 51°14.03 2°53.33 45.489825 4.473834 33.072116 24.332255
2003-06-17 07:00:53 51°14.03 2°53.31 46.244605 4.476155 33.102118 24.365965
2003-06-17 07:00:57 51°14.02 2°53.29 46.244605 4.476155 33.102118 24.365965
2003-06-17 07:01:05 51°14 2°53.25 45.415328 4.476788 33.113617 24.06258
2003-06-17 07:01:09 51°13.99 2°53.23 46.382276 4.476999 33.121058 24.06258
2003-06-17 07:01:13 51°13.98 2°53.21 47.194595 4.476893 33.120184 24.365965
2003-06-17 07:01:19 51°13.97 2°53.18 46.049976 4.478898 33.143045 23.927742
2003-06-17 07:01:25 51°13.95 2°53.14 44.720263 4.480164 33.160942 23.287264
2003-06-17 07:01:29 51°13.95 2°53.12 44.720263 4.480164 33.160942 23.287264
2003-06-17 07:01:33 51°13.94 2°53.1 46.499378 4.481852 33.184057 22.781623
2003-06-17 07:01:39 51°13.92 2°53.07 46.177835 4.483224 33.20971 21.972597
2003-06-17 07:01:45 51°13.91 2°53.04 45.763794 4.487972 33.261664 21.635503
2003-06-17 07:01:49 51°13.9 2°53.01 45.67462 4.490398 33.299575 21.365828
2003-06-17 07:01:53 51°13.89 2°52.99 46.811812 4.493458 33.334736 21.197281
2003-06-17 07:01:59 51°13.88 2°52.96 46.811812 4.493458 33.334736 21.197281
2003-06-17 07:02:05 51°13.87 2°52.93 46.283863 4.494408 33.353549 21.163571
2003-06-17 07:02:09 51°13.86 2°52.91 44.955289 4.494619 33.35933 21.197281
2003-06-17 07:02:13 51°13.85 2°52.89 44.089607 4.495041 33.365714 20.893896
2003-06-17 07:02:19 51°13.83 2°52.85 44.116426 4.494408 33.363911 21.028734
2003-06-17 07:02:25 51°13.82 2°52.82 42.627999 4.493669 33.358928 21.028734
2003-06-17 07:02:29 51°13.81 2°52.8 42.627999 4.493669 33.358928 21.028734
2003-06-17 07:02:35 51°13.8 2°52.77 44.844775 4.493458 33.361206 20.759059
2003-06-17 07:02:39 51°13.79 2°52.74 44.290143 4.493353 33.360329 20.759059
2003-06-17 07:02:45 51°13.77 2°52.71 45.274391 4.492931 33.359703 20.523093
2003-06-17 07:02:49 51°13.76 2°52.69 46.437266 4.492615 33.358225 20.65793
2003-06-17 07:02:53 51°13.75 2°52.67 44.227042 4.492403 33.35532 20.354546
2003-06-17 07:02:57 51°13.75 2°52.64 44.227042 4.492403 33.35532 20.354546
2003-06-17 07:03:05 51°13.73 2°52.6 45.326545 4.490715 33.338417 19.882614
2003-06-17 07:03:09 51°13.72 2°52.58 46.482273 4.489344 33.327023 19.781486
2003-06-17 07:03:13 51°13.71 2°52.55 45.934427 4.488711 33.319464 19.680358
2003-06-17 07:03:17 51°13.7 2°52.53 44.739223 4.488606 33.319738 19.410683
2003-06-17 07:03:25 51°13.68 2°52.49 44.840994 4.490399 33.340392 19.00617
2003-06-17 07:03:29 51°13.67 2°52.47 44.840994 4.490399 33.340392 19.00617
2003-06-17 07:03:33 51°13.66 2°52.44 44.678806 4.491454 33.353765 18.97246
2003-06-17 07:03:37 51°13.65 2°52.42 43.82679 4.492931 33.37238 18.803913
2003-06-17 07:03:45 51°13.63 2°52.38 43.889659 4.493248 33.3802 18.500529
2003-06-17 07:03:49 51°13.62 2°52.36 45.20884 4.494725 33.395365 18.635366
2003-06-17 07:03:53 51°13.61 2°52.33 42.738435 4.495463 33.403814 18.837623
2003-06-17 07:03:59 51°13.6 2°52.3 42.738435 4.495463 33.403814 18.837623
2003-06-17 07:04:05 51°13.59 2°52.27 44.017861 4.496307 33.410832 18.803913
2003-06-17 07:04:09 51°13.58 2°52.24 43.043567 4.496307 33.407369 18.97246
2003-06-17 07:04:13 51°13.57 2°52.22 42.154973 4.497151 33.4115 18.669076
2003-06-17 07:04:17 51°13.56 2°52.2 42.296533 4.495674 33.392297 18.770204
2003-06-17 07:04:25 51°13.54 2°52.15 42.998607 4.495568 33.383925 18.736494
2003-06-17 07:04:29 51°13.53 2°52.13 42.998607 4.495568 33.383925 18.736494
2003-06-17 07:04:33 51°13.52 2°52.11 42.890375 4.495463 33.370948 18.669076
2003-06-17 07:04:37 51°13.51 2°52.09 42.902585 4.496096 33.368719 18.298272
2003-06-17 07:04:45 51°13.49 2°52.04 43.5552 4.497467 33.377807 18.298272
2003-06-17 07:04:49 51°13.48 2°52.02 44.795667 4.499472 33.393304 17.893759
2003-06-17 07:04:53 51°13.47 2°52 46.481784 4.503375 33.425151 17.455537
2003-06-17 07:04:59 51°13.46 2°51.97 46.481784 4.503375 33.425151 17.455537
2003-06-17 07:05:05 51°13.45 2°51.93 44.800593 4.505591 33.449328 17.219571
2003-06-17 07:05:09 51°13.44 2°51.91 46.480433 4.508334 33.473854 17.051024
2003-06-17 07:05:13 51°13.43 2°51.89 45.199646 4.509178 33.484913 16.71393
2003-06-17 07:05:19 51°13.42 2°51.85 45.228186 4.510338 33.499764 16.545383
2003-06-17 07:05:25 51°13.4 2°51.82 46.041509 4.511921 33.518707 16.140871
2003-06-17 07:05:29 51°13.39 2°51.8 46.041509 4.511921 33.518707 16.140871
2003-06-17 07:05:33 51°13.38 2°51.78 45.859595 4.51287 33.531814 16.006033
2003-06-17 07:05:37 51°13.37 2°51.75 45.125595 4.514348 33.546417 15.60152
2003-06-17 07:05:45 51°13.36 2°51.71 44.959767 4.511499 33.533729 15.399264
2003-06-17 07:05:49 51°13.35 2°51.69 45.316023 4.51593 33.579303 15.365554
2003-06-17 07:05:53 51°13.34 2°51.67 45.26675 4.516458 33.5895 14.927332
2003-06-17 07:05:57 51°13.33 2°51.65 45.26675 4.516458 33.5895 14.927332
2003-06-17 07:06:05 51°13.31 2°51.6 45.435122 4.518357 33.622751 14.4554
2003-06-17 07:06:09 51°13.3 2°51.58 45.284772 4.520257 33.648467 14.421691
2003-06-17 07:06:13 51°13.29 2°51.56 42.239254 4.520679 33.660722 14.354272
2003-06-17 07:06:17 51°13.28 2°51.54 41.775311 4.521206 33.673281 14.253144
2003-06-17 07:06:25 51°13.26 2°51.49 43.907414 4.521206 33.67678 14.253144
2003-06-17 07:06:29 51°13.25 2°51.47 43.907414 4.521206 33.67678 14.253144
2003-06-17 07:06:33 51°13.24 2°51.45 43.375002 4.521206 33.676197 14.084597
2003-06-17 07:06:39 51°13.23 2°51.41 42.732153 4.52089 33.674141 14.219435
2003-06-17 07:06:45 51°13.22 2°51.38 42.400952 4.520679 33.674131 14.084597
2003-06-17 07:06:49 51°13.21 2°51.36 44.520867 4.52089 33.678224 13.949759
2003-06-17 07:06:53 51°13.2 2°51.34 44.849201 4.520363 33.677909 14.118306
2003-06-17 07:06:57 51°13.19 2°51.31 44.849201 4.520363 33.677909 14.118306
2003-06-17 07:07:05 51°13.17 2°51.27 44.585866 4.520152 33.674982 14.152016
2003-06-17 07:07:09 51°13.16 2°51.25 44.822027 4.520363 33.679659 14.152016
2003-06-17 07:07:13 51°13.16 2°51.22 44.816193 4.518569 33.664116 13.983469
2003-06-17 07:07:17 51°13.15 2°51.2 45.374472 4.520152 33.676149 13.646375
2003-06-17 07:07:25 51°13.13 2°51.15 42.791405 4.520468 33.681706 13.578956
2003-06-17 07:07:29 51°13.12 2°51.13 42.791405 4.520468 33.681706 13.578956
2003-06-17 07:07:33 51°13.12 2°51.11 44.436352 4.521207 33.691953 13.713794
2003-06-17 07:07:39 51°13.11 2°51.07 44.881668 4.521945 33.70045 13.444118
2003-06-17 07:07:45 51°13.09 2°51.03 45.100614 4.522578 33.713912 13.3767
2003-06-17 07:07:49 51°13.09 2°51.01 44.877801 4.522579 33.720342 13.545247
2003-06-17 07:07:53 51°13.08 2°50.99 45.926411 4.523106 33.728839 13.477828
2003-06-17 07:07:59 51°13.06 2°50.95 45.926411 4.523106 33.728839 13.477828
2003-06-17 07:08:05 51°13.05 2°50.92 44.142646 4.523212 33.731475 13.545247
2003-06-17 07:08:09 51°13.04 2°50.9 43.339859 4.52279 33.734388 13.646375
2003-06-17 07:08:13 51°13.04 2°50.87 44.97285 4.523845 33.748467 13.511537
2003-06-17 07:08:19 51°13.02 2°50.84 43.54002 4.523528 33.749337 13.612665
2003-06-17 07:08:25 51°13.01 2°50.8 43.304581 4.523423 33.751384 13.814922
2003-06-17 07:08:29 51°13 2°50.78 43.304581 4.523423 33.751384 13.814922
2003-06-17 07:08:33 51°13 2°50.76 41.85597 4.52395 33.754619 13.848631
2003-06-17 07:08:39 51°12.98 2°50.72 43.220207 4.523212 33.746693 14.017178
2003-06-17 07:08:45 51°12.97 2°50.68 44.164248 4.522051 33.738171 14.152016
2003-06-17 07:08:49 51°12.97 2°50.66 45.329896 4.521735 33.730259 14.185725
2003-06-17 07:08:55 51°12.95 2°50.63 46.905558 4.521524 33.721476 14.152016
2003-06-17 07:08:59 51°12.94 2°50.6 46.905558 4.521524 33.721476 14.152016
2003-06-17 07:09:05 51°12.93 2°50.57 45.507595 4.521629 33.719433 14.4554
2003-06-17 07:09:09 51°12.92 2°50.55 45.968709 4.521629 33.713585 14.556529
2003-06-17 07:09:13 51°12.92 2°50.52 46.039602 4.523423 33.725633 14.387982
2003-06-17 07:09:17 51°12.91 2°50.5 45.938044 4.522684 33.720638 14.253144
2003-06-17 07:09:25 51°12.89 2°50.45 45.826109 4.524267 33.736188 14.387982
2003-06-17 07:09:29 51°12.88 2°50.43 45.826109 4.524267 33.736188 14.387982
2003-06-17 07:09:33 51°12.87 2°50.41 44.810563 4.524478 33.74029 14.185725
2003-06-17 07:09:37 51°12.87 2°50.38 44.307519 4.525111 33.74382 14.084597
2003-06-17 07:09:45 51°12.85 2°50.34 45.645272 4.525005 33.74528 14.084597
2003-06-17 07:09:49 51°12.84 2°50.31 45.252342 4.52606 33.755259 14.050888
2003-06-17 07:09:53 51°12.84 2°50.29 45.641091 4.525955 33.754378 14.084597
2003-06-17 07:09:57 51°12.83 2°50.27 45.641091 4.525955 33.754378 14.084597
2003-06-17 07:10:05 51°12.81 2°50.22 45.404643 4.526799 33.759669 13.983469
2003-06-17 07:10:09 51°12.8 2°50.2 42.517597 4.526904 33.764064 13.983469
2003-06-17 07:10:13 51°12.79 2°50.17 44.184426 4.526588 33.762592 14.017178
2003-06-17 07:10:19 51°12.78 2°50.14 43.969867 4.526271 33.760534 14.152016
2003-06-17 07:10:25 51°12.77 2°50.1 42.77954 4.526271 33.758778 14.084597
2003-06-17 07:10:29 51°12.76 2°50.08 42.77954 4.526271 33.758778 14.084597
2003-06-17 07:10:33 51°12.75 2°50.06 43.569723 4.526377 33.758488 14.152016
2003-06-17 07:10:37 51°12.74 2°50.04 41.698895 4.525427 33.748803 14.118306
2003-06-17 07:10:45 51°12.73 2°49.99 44.447808 4.527221 33.760266 13.983469
2003-06-17 07:10:49 51°12.72 2°49.97 43.407835 4.524056 33.735012 13.983469
2003-06-17 07:10:53 51°12.71 2°49.94 43.934024 4.526166 33.749116 14.084597
2003-06-17 07:10:57 51°12.7 2°49.92 43.934024 4.526166 33.749116 14.084597
2003-06-17 07:11:05 51°12.69 2°49.87 42.264982 4.52817 33.761754 13.612665
2003-06-17 07:11:09 51°12.68 2°49.85 43.117589 4.526271 33.741807 13.848631
2003-06-17 07:11:13 51°12.67 2°49.82 44.404862 4.527326 33.745933 14.017178
2003-06-17 07:11:19 51°12.66 2°49.79 45.151853 4.527959 33.751215 13.747503
2003-06-17 07:11:25 51°12.65 2°49.75 45.416609 4.528592 33.752403 13.747503
2003-06-17 07:11:29 51°12.64 2°49.73 45.416609 4.528592 33.752403 13.747503
2003-06-17 07:11:33 51°12.63 2°49.71 44.428547 4.529541 33.757987 13.646375
2003-06-17 07:11:39 51°12.62 2°49.67 44.537607 4.529752 33.758578 13.444118
2003-06-17 07:11:45 51°12.61 2°49.64 44.414143 4.530702 33.766501 13.34299
2003-06-17 07:11:49 51°12.6 2°49.61 44.97841 4.532706 33.783814 13.241862
2003-06-17 07:11:53 51°12.59 2°49.59 45.419025 4.533023 33.788797 13.140734
2003-06-17 07:11:57 51°12.58 2°49.57 45.419025 4.533023 33.788797 13.140734
2003-06-17 07:12:05 51°12.57 2°49.52 43.173279 4.532706 33.786741 13.073315
2003-06-17 07:12:09 51°12.56 2°49.5 43.347617 4.534078 33.795846 12.837349
2003-06-17 07:12:13 51°12.55 2°49.47 42.511479 4.535871 33.809058 12.972187
2003-06-17 07:12:17 51°12.54 2°49.45 43.100414 4.534605 33.797906 13.107024
2003-06-17 07:12:25 51°12.53 2°49.4 44.632775 4.535238 33.799675 13.140734
2003-06-17 07:12:29 51°12.52 2°49.38 44.632775 4.535238 33.799675 13.140734
2003-06-17 07:12:33 51°12.51 2°49.36 44.747439 4.53661 33.806435 12.972187
2003-06-17 07:12:37 51°12.51 2°49.33 45.314624 4.536293 33.801452 13.005896
2003-06-17 07:12:45 51°12.49 2°49.29 45.390724 4.536188 33.79823 13.005896
2003-06-17 07:12:49 51°12.48 2°49.26 46.027665 4.535133 33.786503 12.871059
2003-06-17 07:12:53 51°12.47 2°49.24 45.034344 4.535555 33.792949 12.837349
2003-06-17 07:12:59 51°12.46 2°49.21 45.034344 4.535555 33.792949 12.837349
2003-06-17 07:13:05 51°12.45 2°49.17 41.589289 4.537454 33.807036 12.80364
2003-06-17 07:13:09 51°12.44 2°49.15 44.848263 4.539353 33.824637 12.432836
2003-06-17 07:13:13 51°12.43 2°49.12 44.754716 4.539142 33.825806 12.365418
2003-06-17 07:13:17 51°12.42 2°49.1 42.596092 4.54083 33.840478 12.365418
2003-06-17 07:13:25 51°12.41 2°49.06 43.795219 4.541252 33.845173 12.196871
2003-06-17 07:13:29 51°12.4 2°49.03 43.795219 4.541252 33.845173 12.196871
2003-06-17 07:13:33 51°12.39 2°49.01 41.792641 4.542096 33.851044 12.028324
2003-06-17 07:13:37 51°12.38 2°48.99 43.403869 4.541991 33.85075 12.095742
2003-06-17 07:13:45 51°12.37 2°48.94 43.396445 4.542096 33.848112 11.994614
2003-06-17 07:13:49 51°12.36 2°48.92 41.746177 4.542412 33.848995 11.960905
2003-06-17 07:13:53 51°12.35 2°48.89 43.107775 4.54294 33.851638 11.893486
2003-06-17 07:13:59 51°12.34 2°48.86 43.107775 4.54294 33.851638 11.893486
2003-06-17 07:14:05 51°12.33 2°48.82 43.578323 4.544734 33.867777 11.893486
2003-06-17 07:14:09 51°12.32 2°48.8 44.176627 4.543679 33.858973 11.826067
2003-06-17 07:14:13 51°12.31 2°48.78 43.05743 4.5441 33.859563 11.893486
2003-06-17 07:14:19 51°12.3 2°48.74 44.201617 4.54505 33.869245 11.69123
2003-06-17 07:14:25 51°12.29 2°48.71 43.286937 4.544945 33.867778 11.488973
2003-06-17 07:14:29 51°12.28 2°48.68 43.286937 4.544945 33.867778 11.488973
2003-06-17 07:14:33 51°12.27 2°48.66 43.446258 4.541146 33.837259 11.623811
2003-06-17 07:14:37 51°12.26 2°48.64 44.844599 4.546316 33.879224 11.354136
2003-06-17 07:14:45 51°12.25 2°48.59 42.045607 4.546105 33.877463 11.421554
2003-06-17 07:14:49 51°12.24 2°48.57 42.376988 4.546633 33.881278 11.320426
2003-06-17 07:14:53 51°12.23 2°48.54 43.803795 4.546738 33.880985 11.11817
2003-06-17 07:14:57 51°12.22 2°48.52 43.803795 4.546738 33.880985 11.11817
2003-06-17 07:15:05 51°12.21 2°48.47 42.753431 4.542834 33.849585 11.08446
2003-06-17 07:15:09 51°12.2 2°48.45 42.732033 4.546316 33.878637 10.848494
2003-06-17 07:15:13 51°12.19 2°48.43 43.775392 4.548426 33.898007 10.713657
2003-06-17 07:15:19 51°12.18 2°48.39 42.559414 4.548321 33.900062 10.679947
2003-06-17 07:15:25 51°12.17 2°48.36 41.282264 4.548848 33.90564 10.342853
2003-06-17 07:15:29 51°12.16 2°48.33 41.282264 4.548848 33.90564 10.342853
2003-06-17 07:15:33 51°12.15 2°48.31 41.724183 4.548954 33.90652 10.174306
2003-06-17 07:15:37 51°12.14 2°48.29 42.22223 4.551486 33.927657 10.073178
2003-06-17 07:15:45 51°12.13 2°48.24 43.061083 4.55138 33.924426 9.938341
2003-06-17 07:15:49 51°12.12 2°48.22 42.548058 4.552435 33.930295 9.803503
2003-06-17 07:15:53 51°12.11 2°48.19 42.734046 4.553068 33.931465 9.668665
2003-06-17 07:15:57 51°12.1 2°48.17 42.734046 4.553068 33.931465 9.668665
2003-06-17 07:16:05 51°12.09 2°48.12 43.023082 4.553701 33.933811 9.769794
2003-06-17 07:16:09 51°12.08 2°48.1 43.330399 4.554545 33.93968 9.601247
2003-06-17 07:16:13 51°12.07 2°48.08 43.593407 4.554334 33.933806 9.533828
2003-06-17 07:16:19 51°12.06 2°48.04 44.161707 4.555495 33.942315 9.39899
2003-06-17 07:16:25 51°12.05 2°48.01 43.155547 4.555389 33.940848 9.466409
2003-06-17 07:16:29 51°12.04 2°47.98 43.155547 4.555389 33.940848 9.466409
2003-06-17 07:16:33 51°12.03 2°47.96 43.6511 4.556128 33.945835 9.365281
2003-06-17 07:16:39 51°12.02 2°47.92 43.550914 4.555706 33.942901 9.264153
2003-06-17 07:16:45 51°12.01 2°47.89 43.091675 4.555917 33.944074 9.39899
2003-06-17 07:16:49 51°12 2°47.86 42.819574 4.555811 33.944369 9.331571
2003-06-17 07:16:53 51°11.99 2°47.84 43.845507 4.556233 33.946715 9.39899
2003-06-17 07:16:57 51°11.99 2°47.82 43.845507 4.556233 33.946715 9.39899
2003-06-17 07:17:05 51°11.97 2°47.77 43.114088 4.557394 33.955812 9.365281
2003-06-17 07:17:09 51°11.96 2°47.75 42.970558 4.553701 33.924413 9.466409
2003-06-17 07:17:13 51°11.95 2°47.73 44.575163 4.556444 33.945538 9.533828
2003-06-17 07:17:17 51°11.94 2°47.7 42.477447 4.555917 33.942312 9.365281
2003-06-17 07:17:25 51°11.93 2°47.66 44.456554 4.55655 33.948769 9.466409
2003-06-17 07:17:29 51°11.92 2°47.63 44.456554 4.55655 33.948769 9.466409
2003-06-17 07:17:33 51°11.91 2°47.61 45.270279 4.555706 33.940551 9.331571
2003-06-17 07:17:37 51°11.91 2°47.58 45.211554 4.556761 33.948179 9.196734
2003-06-17 07:17:45 51°11.89 2°47.54 44.362042 4.550114 33.895074 9.264153
2003-06-17 07:17:49 51°11.89 2°47.51 46.20077 4.556866 33.948472 9.163024
2003-06-17 07:17:53 51°11.88 2°47.49 43.780884 4.556761 33.948179 9.061896
2003-06-17 07:17:57 51°11.87 2°47.46 43.780884 4.556761 33.948179 9.061896
2003-06-17 07:18:05 51°11.86 2°47.41 19.339266 4.556655 33.948474 9.129315
2003-06-17 07:18:09 51°11.86 2°47.39 19.797306 4.557077 33.952583 9.028187
2003-06-17 07:18:13 51°11.85 2°47.36 19.394838 4.557605 33.958748 9.095606
2003-06-17 07:18:19 51°11.84 2°47.33 19.319452 4.556339 33.951122 9.129315
2003-06-17 07:18:25 51°11.83 2°47.29 19.302861 4.557077 33.95611 9.061896
2003-06-17 07:18:29 51°11.82 2°47.27 19.302861 4.557077 33.95611 9.061896
2003-06-17 07:18:33 51°11.81 2°47.24 19.200163 4.5575 33.961983 9.769794
2003-06-17 07:18:37 51°11.81 2°47.22 19.435275 4.557816 33.966389 9.702375
2003-06-17 07:18:45 51°11.79 2°47.17 19.458278 4.557711 33.973743 8.927059
2003-06-17 07:18:49 51°11.79 2°47.15 19.393246 4.558133 33.987862 8.455127
2003-06-17 07:18:53 51°11.78 2°47.12 19.18469 4.558239 33.995811 8.28658
2003-06-17 07:18:57 51°11.77 2°47.1 19.18469 4.558239 33.995811 8.28658
2003-06-17 07:19:05 51°11.76 2°47.05 19.657605 4.558028 34.002887 8.084324
2003-06-17 07:19:09 51°11.76 2°47.02 19.893338 4.558028 34.010551 7.983195
2003-06-17 07:19:13 51°11.75 2°47 19.321903 4.5575 34.01263 7.882067
2003-06-17 07:19:19 51°11.74 2°46.96 19.503649 4.556867 34.012058 7.71352
2003-06-17 07:19:25 51°11.73 2°46.93 19.115552 4.556868 34.014418 7.544973
2003-06-17 07:19:29 51°11.72 2°46.9 19.115552 4.556868 34.014418 7.544973
2003-06-17 07:19:33 51°11.72 2°46.88 19.003426 4.557606 34.022954 7.544973
2003-06-17 07:19:39 51°11.7 2°46.84 19.069928 4.556973 34.018841 7.410136
2003-06-17 07:19:45 51°11.69 2°46.8 19.420629 4.556551 34.014723 7.241589
2003-06-17 07:19:49 51°11.69 2°46.78 19.08969 4.55845 34.032373 7.005623
2003-06-17 07:19:53 51°11.68 2°46.76 19.35299 4.558134 34.037994 6.803366
2003-06-17 07:19:57 51°11.67 2°46.73 19.35299 4.558134 34.037994 6.803366
2003-06-17 07:20:05 51°11.66 2°46.68 19.450448 4.558451 34.05128 6.769657
2003-06-17 07:20:09 51°11.66 2°46.66 19.183585 4.556763 34.047206 6.702238
2003-06-17 07:20:13 51°11.65 2°46.63 19.543616 4.556235 34.052847 6.5674
2003-06-17 07:20:17 51°11.64 2°46.61 19.338653 4.557079 34.065239 6.533691
2003-06-17 07:20:25 51°11.63 2°46.56 19.104282 4.555286 34.056141 6.499982
2003-06-17 07:20:29 51°11.62 2°46.53 19.104282 4.555286 34.056141 6.499982
2003-06-17 07:20:33 51°11.62 2°46.51 19.075422 4.55613 34.064985 6.398853
2003-06-17 07:20:37 51°11.61 2°46.49 19.282055 4.555602 34.061752 6.365144
2003-06-17 07:20:45 51°11.6 2°46.44 19.186123 4.556025 34.068839 6.432563
2003-06-17 07:20:49 51°11.59 2°46.41 19.285244 4.555181 34.067101 6.466272
2003-06-17 07:20:53 51°11.58 2°46.39 19.317899 4.55497 34.066518 6.365144
2003-06-17 07:20:59 51°11.57 2°46.35 19.317899 4.55497 34.066518 6.365144
2003-06-17 07:21:05 51°11.56 2°46.32 19.209412 4.555286 34.070354 6.331435
2003-06-17 07:21:09 51°11.56 2°46.29 19.166102 4.55497 34.068888 6.095469
2003-06-17 07:21:13 51°11.55 2°46.27 19.625637 4.555075 34.068587 5.960631
2003-06-17 07:21:17 51°11.54 2°46.24 19.126124 4.555392 34.068868 5.893212
2003-06-17 07:21:25 51°11.53 2°46.19 19.454648 4.555603 34.067674 5.893212
2003-06-17 07:21:29 51°11.52 2°46.17 19.454648 4.555603 34.067674 5.893212
2003-06-17 07:21:33 51°11.52 2°46.14 19.188006 4.556236 34.074161 5.859503
2003-06-17 07:21:39 51°11.51 2°46.11 19.548381 4.55613 34.076832 5.926922
2003-06-17 07:21:45 51°11.5 2°46.07 19.04249 4.556236 34.082458 5.893212
2003-06-17 07:21:49 51°11.49 2°46.05 19.209453 4.555392 34.080721 5.893212
2003-06-17 07:21:53 51°11.48 2°46.02 18.970541 4.555497 34.085163 5.859503
2003-06-17 07:21:59 51°11.47 2°45.98 18.970541 4.555497 34.085163 5.859503
2003-06-17 07:22:05 51°11.46 2°45.95 19.277599 4.555392 34.086651 5.926922
2003-06-17 07:22:09 51°11.46 2°45.92 19.341349 4.554653 34.082834 5.994341
2003-06-17 07:22:13 51°11.45 2°45.9 19.777783 4.554337 34.083739 5.960631
2003-06-17 07:22:19 51°11.44 2°45.86 19.37504 4.554759 34.090243 5.994341
2003-06-17 07:22:25 51°11.43 2°45.83 19.203355 4.554126 34.08731 5.994341
2003-06-17 07:22:29 51°11.42 2°45.8 19.203355 4.554126 34.08731 5.994341
2003-06-17 07:22:33 51°11.41 2°45.78 19.041464 4.553388 34.082898 6.02805
2003-06-17 07:22:39 51°11.4 2°45.74 19.075504 4.553915 34.087914 5.960631
2003-06-17 07:22:45 51°11.39 2°45.71 19.104323 4.554865 34.095282 6.162888
2003-06-17 07:22:49 51°11.39 2°45.68 19.208717 4.553071 34.081431 6.095469
2003-06-17 07:22:55 51°11.38 2°45.64 19.414345 4.554021 34.089986 6.095469
2003-06-17 07:22:57 51°11.37 2°45.63 19.414345 4.554021 34.089986 6.095469
2003-06-17 07:23:05 51°11.36 2°45.58 19.444371 4.553704 34.088519 5.926922
2003-06-17 07:23:09 51°11.36 2°45.56 18.872206 4.553493 34.087937 6.02805
2003-06-17 07:23:13 51°11.35 2°45.53 19.104282 4.551805 34.072004 6.02805
2003-06-17 07:23:17 51°11.34 2°45.51 19.438619 4.554232 34.091162 5.994341
2003-06-17 07:23:25 51°11.33 2°45.46 19.372631 4.554759 34.094991 6.02805
2003-06-17 07:23:29 51°11.32 2°45.44 19.372631 4.554759 34.094991 6.02805
2003-06-17 07:23:33 51°11.32 2°45.41 19.203806 4.554232 34.091162 6.061759
2003-06-17 07:23:39 51°11.31 2°45.38 19.128377 4.554865 34.093501 6.095469
2003-06-17 07:23:45 51°11.3 2°45.34 19.09424 4.554548 34.095596 6.230306
2003-06-17 07:23:49 51°11.29 2°45.32 18.926712 4.555498 34.101183 6.297725
2003-06-17 07:23:53 51°11.28 2°45.29 19.062136 4.554337 34.09264 6.264016
2003-06-17 07:23:59 51°11.27 2°45.25 19.062136 4.554337 34.09264 6.264016
2003-06-17 07:24:05 51°11.26 2°45.22 18.961712 4.554548 34.097377 6.432563
2003-06-17 07:24:09 51°11.26 2°45.19 18.993944 4.554654 34.099449 6.466272
2003-06-17 07:24:13 51°11.25 2°45.17 18.798559 4.553915 34.095631 6.466272
2003-06-17 07:24:17 51°11.24 2°45.14 19.000306 4.55497 34.105666 6.499982
2003-06-17 07:24:25 51°11.23 2°45.1 19.194433 4.553599 34.096539 6.533691
2003-06-17 07:24:29 51°11.22 2°45.07 19.194433 4.553599 34.096539 6.533691
2003-06-17 07:24:33 51°11.22 2°45.05 19.358299 4.554654 34.104793 6.533691
2003-06-17 07:24:37 51°11.21 2°45.02 19.325499 4.553599 34.096539 6.499982
2003-06-17 07:24:45 51°11.2 2°44.97 19.058732 4.554126 34.099775 6.499982
2003-06-17 07:24:49 51°11.19 2°44.95 19.394634 4.554021 34.09889 6.466272
2003-06-17 07:24:53 51°11.18 2°44.92 18.959618 4.554548 34.103315 6.533691
2003-06-17 07:24:57 51°11.18 2°44.9 18.959618 4.554548 34.103315 6.533691
2003-06-17 07:25:05 51°11.16 2°44.85 19.195129 4.554126 34.102151 6.533691
2003-06-17 07:25:09 51°11.16 2°44.83 19.229462 4.554548 34.104502 6.668529
2003-06-17 07:25:13 51°11.15 2°44.8 18.82634 4.553493 34.100999 6.60111
2003-06-17 07:25:19 51°11.14 2°44.77 19.19828 4.55381 34.101872 6.5674
2003-06-17 07:25:25 51°11.13 2°44.73 19.333751 4.553599 34.099508 6.634819
2003-06-17 07:25:29 51°11.12 2°44.71 19.333751 4.553599 34.099508 6.634819
2003-06-17 07:25:33 51°11.12 2°44.68 19.139561 4.554232 34.104224 6.60111
2003-06-17 07:25:37 51°11.11 2°44.66 19.280011 4.554759 34.106866 6.668529
2003-06-17 07:25:45 51°11.1 2°44.61 19.218988 4.554337 34.105702 6.668529
2003-06-17 07:25:49 51°11.09 2°44.58 18.989223 4.554548 34.10569 6.668529
2003-06-17 07:25:53 51°11.09 2°44.56 19.165242 4.554232 34.101848 6.702238
2003-06-17 07:25:59 51°11.08 2°44.52 19.165242 4.554232 34.101848 6.702238
2003-06-17 07:26:05 51°11.07 2°44.49 19.404143 4.554443 34.101242 6.668529
2003-06-17 07:26:09 51°11.06 2°44.46 19.575174 4.555498 34.107715 6.735947
2003-06-17 07:26:13 51°11.05 2°44.44 19.212727 4.556975 34.116537 6.60111
2003-06-17 07:26:19 51°11.04 2°44.4 19.353153 4.557819 34.119457 6.702238
2003-06-17 07:26:25 51°11.03 2°44.37 19.258177 4.55803 34.115882 6.60111
2003-06-17 07:26:29 51°11.03 2°44.34 19.258177 4.55803 34.115882 6.60111
2003-06-17 07:26:33 51°11.02 2°44.32 19.162498 4.558874 34.118208 6.60111
2003-06-17 07:26:39 51°11.01 2°44.28 19.335181 4.559718 34.120533 6.634819
2003-06-17 07:26:45 51°11 2°44.24 19.134113 4.560034 34.119624 6.668529
2003-06-17 07:26:49 51°10.99 2°44.22 19.205402 4.560034 34.114283 6.702238
2003-06-17 07:26:53 51°10.99 2°44.2 19.176011 4.560456 34.114853 6.702238
2003-06-17 07:26:59 51°10.98 2°44.16 19.176011 4.560456 34.114853 6.702238
2003-06-17 07:27:05 51°10.97 2°44.12 19.544512 4.560878 34.116016 6.634819
2003-06-17 07:27:09 51°10.96 2°44.1 19.44747 4.561933 34.11655 6.634819
2003-06-17 07:27:13 51°10.95 2°44.07 19.315325 4.561827 34.113294 6.60111
2003-06-17 07:27:19 51°10.95 2°44.04 19.113913 4.56246 34.115038 6.702238
2003-06-17 07:27:25 51°10.94 2°44 19.483719 4.562355 34.112968 6.702238
2003-06-17 07:27:29 51°10.93 2°43.98 19.483719 4.562355 34.112968 6.702238
2003-06-17 07:27:33 51°10.92 2°43.95 19.384021 4.563199 34.114108 6.735947
2003-06-17 07:27:37 51°10.92 2°43.93 19.114118 4.563199 34.114108 6.634819
2003-06-17 07:27:45 51°10.9 2°43.88 19.31508 4.564254 34.121165 6.837076
2003-06-17 07:27:49 51°10.9 2°43.86 19.314099 4.563093 34.110261 6.735947
2003-06-17 07:27:53 51°10.89 2°43.83 19.113093 4.564887 34.122908 6.735947
2003-06-17 07:27:57 51°10.89 2°43.81 19.113093 4.564887 34.122908 6.735947
2003-06-17 07:28:05 51°10.87 2°43.76 19.178795 4.564043 34.115248 6.769657
2003-06-17 07:28:09 51°10.87 2°43.74 19.346046 4.564465 34.117596 6.870785
2003-06-17 07:28:13 51°10.86 2°43.71 19.408836 4.564887 34.120537 6.904494
2003-06-17 07:28:19 51°10.85 2°43.68 19.241408 4.56457 34.117887 6.938204
2003-06-17 07:28:25 51°10.84 2°43.64 19.205606 4.564887 34.12113 6.971913
2003-06-17 07:28:29 51°10.83 2°43.62 19.205606 4.564887 34.12113 6.971913
2003-06-17 07:28:33 51°10.83 2°43.59 19.402715 4.564992 34.122606 6.904494
2003-06-17 07:28:37 51°10.82 2°43.57 19.297016 4.565625 34.127313 6.971913
2003-06-17 07:28:45 51°10.81 2°43.52 19.395777 4.564043 34.115841 7.005623
2003-06-17 07:28:49 51°10.8 2°43.49 19.095142 4.563726 34.113784 6.938204
2003-06-17 07:28:53 51°10.8 2°43.47 19.293787 4.565203 34.127337 6.971913
2003-06-17 07:28:57 51°10.79 2°43.44 19.293787 4.565203 34.127337 6.971913
2003-06-17 07:29:05 51°10.78 2°43.4 19.393491 4.564887 34.124687 7.005623
2003-06-17 07:29:09 51°10.77 2°43.37 19.190135 4.56457 34.125001 7.005623
2003-06-17 07:29:13 51°10.76 2°43.35 19.256336 4.564359 34.12442 7.039332
2003-06-17 07:29:19 51°10.75 2°43.31 19.18817 4.564676 34.129443 6.938204
2003-06-17 07:29:25 51°10.74 2°43.28 19.420955 4.563621 34.124165 6.904494
2003-06-17 07:29:29 51°10.74 2°43.25 19.420955 4.563621 34.124165 6.904494
2003-06-17 07:29:33 51°10.73 2°43.23 19.051555 4.563726 34.125049 6.870785
2003-06-17 07:29:39 51°10.72 2°43.19 19.284467 4.563621 34.125945 6.971913
2003-06-17 07:29:45 51°10.71 2°43.16 19.247339 4.564148 34.130957 6.938204
2003-06-17 07:29:49 51°10.71 2°43.13 19.311606 4.563832 34.129492 6.870785
2003-06-17 07:29:53 51°10.7 2°43.11 19.209453 4.56341 34.12833 6.870785
2003-06-17 07:29:57 51°10.69 2°43.08 19.209453 4.56341 34.12833 6.870785
2003-06-17 07:30:05 51°10.68 2°43.04 19.106495 4.563515 34.129214 6.870785
2003-06-17 07:30:09 51°10.68 2°43.01 19.205402 4.563516 34.130401 6.870785
2003-06-17 07:30:13 51°10.67 2°42.99 19.203437 4.563832 34.134833 6.837076
2003-06-17 07:30:17 51°10.66 2°42.96 19.13231 4.562988 34.128948 6.870785
2003-06-17 07:30:25 51°10.65 2°42.92 19.33322 4.563305 34.134567 6.837076
2003-06-17 07:30:29 51°10.64 2°42.89 19.33322 4.563305 34.134567 6.837076
2003-06-17 07:30:33 51°10.64 2°42.87 19.301185 4.563621 34.139 6.870785
2003-06-17 07:30:37 51°10.63 2°42.85 18.996243 4.562672 34.131637 6.803366
2003-06-17 07:30:45 51°10.62 2°42.8 19.263002 4.563199 34.137839 6.904494
2003-06-17 07:30:49 51°10.61 2°42.78 19.46366 4.562883 34.136374 6.938204
2003-06-17 07:30:53 51°10.6 2°42.75 19.09838 4.561722 34.129616 6.904494
2003-06-17 07:30:57 51°10.6 2°42.73 19.09838 4.561722 34.129616 6.904494
2003-06-17 07:31:05 51°10.59 2°42.68 19.268522 4.56225 34.136413 6.870785
2003-06-17 07:31:09 51°10.58 2°42.66 19.206016 4.564465 34.154983 6.870785
2003-06-17 07:31:13 51°10.57 2°42.63 19.244435 4.562988 34.144384 6.870785
2003-06-17 07:31:19 51°10.57 2°42.6 19.247298 4.56436 34.155287 6.870785
2003-06-17 07:31:25 51°10.56 2°42.56 19.2841 4.564254 34.154403 6.803366
2003-06-17 07:31:29 51°10.55 2°42.54 19.2841 4.564254 34.154403 6.803366
2003-06-17 07:31:33 51°10.54 2°42.51 19.420343 4.564571 34.157056 6.870785
2003-06-17 07:31:37 51°10.54 2°42.49 19.084852 4.563832 34.147895 6.870785
2003-06-17 07:31:45 51°10.52 2°42.44 19.252247 4.564254 34.14965 6.837076
2003-06-17 07:31:49 51°10.52 2°42.42 19.115798 4.564676 34.149623 6.803366
2003-06-17 07:31:53 51°10.51 2°42.39 19.247298 4.564993 34.1499 6.735947
2003-06-17 07:31:57 51°10.5 2°42.37 19.247298 4.564993 34.1499 6.735947
2003-06-17 07:32:05 51°10.49 2°42.32 19.112479 4.564782 34.146944 6.735947
2003-06-17 07:32:09 51°10.49 2°42.3 19.607409 4.56552 34.14957 6.702238
2003-06-17 07:32:13 51°10.48 2°42.27 19.401736 4.565626 34.14986 6.668529
2003-06-17 07:32:19 51°10.47 2°42.24 19.229994 4.564993 34.144556 6.668529
2003-06-17 07:32:25 51°10.46 2°42.2 19.226394 4.565098 34.146627 6.634819
2003-06-17 07:32:29 51°10.46 2°42.18 19.226394 4.565098 34.146627 6.634819
2003-06-17 07:32:33 51°10.45 2°42.15 19.324682 4.564993 34.144556 6.702238
2003-06-17 07:32:39 51°10.44 2°42.12 19.183871 4.565098 34.146627 6.702238
2003-06-17 07:32:45 51°10.43 2°42.08 19.010814 4.564993 34.148712 6.803366
2003-06-17 07:32:49 51°10.43 2°42.06 19.31034 4.564571 34.150521 6.803366
2003-06-17 07:32:53 51°10.42 2°42.03 19.140749 4.563832 34.146113 6.769657
2003-06-17 07:32:57 51°10.42 2°42.01 19.140749 4.563832 34.146113 6.769657
2003-06-17 07:33:05 51°10.4 2°41.96 19.039864 4.563516 34.145242 6.803366
2003-06-17 07:33:09 51°10.4 2°41.94 19.038715 4.563199 34.146747 6.837076
2003-06-17 07:33:13 51°10.39 2°41.91 19.336284 4.563621 34.153256 6.803366
2003-06-17 07:33:17 51°10.38 2°41.89 19.134605 4.562777 34.153311 6.803366
2003-06-17 07:33:25 51°10.37 2°41.84 19.166511 4.562039 34.150685 6.769657
2003-06-17 07:33:29 51°10.36 2°41.82 19.166511 4.562039 34.150685 6.769657
2003-06-17 07:33:33 51°10.36 2°41.8 19.167699 4.562039 34.151279 6.803366
2003-06-17 07:33:37 51°10.35 2°41.77 18.898725 4.562039 34.149496 6.735947
2003-06-17 07:33:45 51°10.34 2°41.72 19.296649 4.561723 34.150408 6.735947
2003-06-17 07:33:49 51°10.33 2°41.7 19.123501 4.561723 34.152192 6.803366
2003-06-17 07:33:53 51°10.33 2°41.67 19.120101 4.560879 34.146897 6.735947
2003-06-17 07:33:59 51°10.32 2°41.64 19.120101 4.560879 34.146897 6.735947
2003-06-17 07:34:05 51°10.31 2°41.6 19.517789 4.560351 34.144851 6.735947
2003-06-17 07:34:09 51°10.3 2°41.58 19.216656 4.561195 34.153119 6.735947
2003-06-17 07:34:13 51°10.3 2°41.55 19.249547 4.55919 34.136901 6.634819
2003-06-17 07:34:17 51°10.29 2°41.53 18.978754 4.560457 34.147519 6.668529
2003-06-17 07:34:25 51°10.28 2°41.48 19.515996 4.560562 34.151972 6.634819
2003-06-17 07:34:29 51°10.27 2°41.46 19.515996 4.560562 34.151972 6.634819
2003-06-17 07:34:33 51°10.27 2°41.43 19.047043 4.559929 34.149636 6.60111
2003-06-17 07:34:37 51°10.26 2°41.41 19.184404 4.560562 34.157326 6.668529
2003-06-17 07:34:45 51°10.25 2°41.36 19.086451 4.559191 34.148793 6.634819
2003-06-17 07:34:49 51°10.24 2°41.34 19.031618 4.559718 34.156194 6.533691
2003-06-17 07:34:53 51°10.23 2°41.31 19.104774 4.559085 34.150287 6.533691
2003-06-17 07:34:59 51°10.22 2°41.28 19.104774 4.559085 34.150287 6.533691
2003-06-17 07:35:05 51°10.21 2°41.24 19.335181 4.558769 34.147631 6.499982
2003-06-17 07:35:09 51°10.21 2°41.22 19.216328 4.558558 34.145266 6.5674
2003-06-17 07:35:13 51°10.2 2°41.19 19.039577 4.55898 34.146428 6.499982
2003-06-17 07:35:19 51°10.19 2°41.16 18.94405 4.558136 34.140536 6.533691
2003-06-17 07:35:25 51°10.18 2°41.12 19.422138 4.559296 34.146109 6.499982
2003-06-17 07:35:29 51°10.18 2°41.1 19.422138 4.559296 34.146109 6.499982
2003-06-17 07:35:33 51°10.17 2°41.07 19.192018 4.55898 34.138698 6.5674
2003-06-17 07:35:39 51°10.16 2°41.03 19.229421 4.558241 34.131314 6.432563
2003-06-17 07:35:45 51°10.15 2°41 19.298324 4.559613 34.146386 6.533691
2003-06-17 07:35:49 51°10.15 2°40.97 19.437967 4.558663 34.144367 6.432563
2003-06-17 07:35:53 51°10.14 2°40.95 19.037157 4.559929 34.155584 6.499982
2003-06-17 07:35:59 51°10.13 2°40.91 19.037157 4.559929 34.155584 6.499982
2003-06-17 07:36:05 51°10.12 2°40.88 19.51184 4.558769 34.145252 6.466272
2003-06-17 07:36:09 51°10.11 2°40.85 19.209044 4.558347 34.139928 6.499982
2003-06-17 07:36:15 51°10.1 2°40.82 19.237808 4.558558 34.138725 6.499982
2003-06-17 07:36:19 51°10.1 2°40.79 19.234003 4.559191 34.141062 6.466272
2003-06-17 07:36:25 51°10.09 2°40.76 19.167781 4.55898 34.136914 6.499982
2003-06-17 07:36:29 51°10.08 2°40.73 19.167781 4.55898 34.136914 6.499982
2003-06-17 07:36:33 51°10.08 2°40.71 19.273511 4.558557 34.132186 6.5674
2003-06-17 07:36:37 51°10.07 2°40.68 19.143986 4.559823 34.138644 6.5674
2003-06-17 07:36:45 51°10.06 2°40.64 19.043556 4.559612 34.135091 6.5674
2003-06-17 07:36:49 51°10.05 2°40.61 19.14845 4.560773 34.147796 6.5674
2003-06-17 07:36:53 51°10.05 2°40.59 19.252656 4.560245 34.142183 6.60111
2003-06-17 07:36:57 51°10.04 2°40.56 19.252656 4.560245 34.142183 6.60111
2003-06-17 07:37:05 51°10.03 2°40.51 19.321291 4.559718 34.137759 6.5674
2003-06-17 07:37:09 51°10.02 2°40.49 19.222752 4.560245 34.140994 6.533691
2003-06-17 07:37:13 51°10.01 2°40.47 19.322802 4.559718 34.135382 6.634819
2003-06-17 07:37:17 51°10.01 2°40.44 19.020909 4.560351 34.139501 6.668529
2003-06-17 07:37:25 51°9.99 2°40.39 19.257318 4.56014 34.135355 6.735947
2003-06-17 07:37:29 51°9.99 2°40.37 19.257318 4.56014 34.135355 6.735947
2003-06-17 07:37:33 51°9.98 2°40.35 19.159181 4.559401 34.126193 6.769657
2003-06-17 07:37:39 51°9.97 2°40.31 18.927822 4.560667 34.137402 6.803366
2003-06-17 07:37:45 51°9.96 2°40.27 19.064392 4.560351 34.13059 6.803366
2003-06-17 07:37:49 51°9.96 2°40.25 19.536936 4.560245 34.130299 6.904494
2003-06-17 07:37:53 51°9.95 2°40.23 19.24063 4.560351 34.131184 6.870785
2003-06-17 07:37:57 51°9.95 2°40.2 19.24063 4.560351 34.131184 6.870785
2003-06-17 07:38:05 51°9.93 2°40.15 19.145337 4.5613 34.134392 6.971913
2003-06-17 07:38:09 51°9.93 2°40.13 19.557829 4.560562 34.129389 7.106751
2003-06-17 07:38:13 51°9.92 2°40.1 19.265251 4.560562 34.127014 7.039332
2003-06-17 07:38:17 51°9.91 2°40.08 19.373488 4.5613 34.130235 7.17417
2003-06-17 07:38:25 51°9.9 2°40.03 19.419038 4.560667 34.121962 7.241589
2003-06-17 07:38:29 51°9.89 2°40.01 19.419038 4.560667 34.121962 7.241589
2003-06-17 07:38:33 51°9.89 2°39.98 19.292725 4.561617 34.127545 7.241589
2003-06-17 07:38:39 51°9.88 2°39.95 19.331382 4.5613 34.120145 7.275298
2003-06-17 07:38:45 51°9.87 2°39.91 19.406021 4.561511 34.118353 7.342717
2003-06-17 07:38:49 51°9.86 2°39.89 19.345107 4.5613 34.110654 7.443845
2003-06-17 07:38:53 51°9.86 2°39.86 19.216124 4.562144 34.112387 7.309007
2003-06-17 07:38:59 51°9.85 2°39.83 19.216124 4.562144 34.112387 7.309007
2003-06-17 07:39:05 51°9.84 2°39.79 19.290599 4.56246 34.104368 7.477554
2003-06-17 07:39:09 51°9.83 2°39.77 19.399613 4.563093 34.106113 7.376426
2003-06-17 07:39:13 51°9.83 2°39.74 19.043515 4.563093 34.098412 7.410136
2003-06-17 07:39:17 51°9.82 2°39.72 19.358911 4.564042 34.099254 7.410136
2003-06-17 07:39:25 51°9.81 2°39.67 19.33179 4.564675 34.099223 7.477554
2003-06-17 07:39:29 51°9.8 2°39.65 19.33179 4.564675 34.099223 7.477554
2003-06-17 07:39:33 51°9.79 2°39.62 19.134195 4.561721 34.069773 7.410136
2003-06-17 07:39:37 51°9.79 2°39.6 19.539665 4.56573 34.096805 7.207879
2003-06-17 07:39:45 51°9.78 2°39.55 19.441964 4.565308 34.08795 7.410136
2003-06-17 07:39:49 51°9.77 2°39.52 19.276087 4.566574 34.090259 7.477554
2003-06-17 07:39:53 51°9.76 2°39.5 19.510129 4.566468 34.08051 7.578683
2003-06-17 07:39:57 51°9.76 2°39.48 19.510129 4.566468 34.08051 7.578683
2003-06-17 07:40:05 51°9.75 2°39.43 19.473323 4.567418 34.081357 7.511264
2003-06-17 07:40:09 51°9.74 2°39.4 19.099814 4.568051 34.081921 7.544973
2003-06-17 07:40:13 51°9.73 2°39.38 19.193164 4.567523 34.073969 7.544973
2003-06-17 07:40:17 51°9.73 2°39.35 19.214528 4.568895 34.079524 7.511264
2003-06-17 07:40:25 51°9.72 2°39.31 19.409367 4.569528 34.081861 7.544973
2003-06-17 07:40:29 51°9.71 2°39.28 19.409367 4.569528 34.081861 7.544973
2003-06-17 07:40:33 51°9.7 2°39.26 19.471815 4.567945 34.07041 7.578683
2003-06-17 07:40:39 51°9.69 2°39.22 19.331995 4.568684 34.077171 7.511264
2003-06-17 07:40:45 51°9.68 2°39.19 19.258995 4.568578 34.078651 7.511264
2003-06-17 07:40:49 51°9.68 2°39.16 19.490037 4.568473 34.078951 7.511264
2003-06-17 07:40:53 51°9.67 2°39.14 19.289455 4.567629 34.080757 7.511264
2003-06-17 07:40:57 51°9.67 2°39.11 19.289455 4.567629 34.080757 7.511264
2003-06-17 07:41:05 51°9.65 2°39.06 19.517708 4.567101 34.079302 7.511264
2003-06-17 07:41:09 51°9.65 2°39.04 19.20622 4.567523 34.088148 7.477554
2003-06-17 07:41:13 51°9.64 2°39.01 19.303515 4.566257 34.083474 7.477554
2003-06-17 07:41:17 51°9.64 2°38.99 19.260058 4.566363 34.087312 7.342717
2003-06-17 07:41:25 51°9.62 2°38.94 19.418221 4.56478 34.0794 7.410136
2003-06-17 07:41:29 51°9.62 2°38.92 19.418221 4.56478 34.0794 7.410136
2003-06-17 07:41:33 51°9.61 2°38.89 19.173308 4.565097 34.082046 7.477554
2003-06-17 07:41:39 51°9.6 2°38.86 19.331464 4.564148 34.080018 7.309007
2003-06-17 07:41:45 51°9.59 2°38.82 19.320147 4.564675 34.086796 7.275298
2003-06-17 07:41:49 51°9.58 2°38.8 19.068574 4.56362 34.084477 7.207879
2003-06-17 07:41:53 51°9.58 2°38.77 18.948199 4.564148 34.093625 7.207879
2003-06-17 07:41:59 51°9.57 2°38.74 18.948199 4.564148 34.093625 7.207879
2003-06-17 07:42:05 51°9.56 2°38.7 19.368017 4.56246 34.092522 7.14046
2003-06-17 07:42:09 51°9.55 2°38.68 19.050898 4.562776 34.094579 7.039332
2003-06-17 07:42:13 51°9.55 2°38.65 19.203274 4.562249 34.100824 7.073042
2003-06-17 07:42:17 51°9.54 2°38.63 19.154553 4.562249 34.107935 7.005623
2003-06-17 07:42:25 51°9.53 2°38.58 19.142839 4.561722 34.111224 6.837076
2003-06-17 07:42:29 51°9.53 2°38.56 19.142839 4.561722 34.111224 6.837076
2003-06-17 07:42:33 51°9.52 2°38.53 19.462274 4.55919 34.106024 6.837076
2003-06-17 07:42:37 51°9.51 2°38.51 19.012373 4.559085 34.117008 6.735947
2003-06-17 07:42:45 51°9.5 2°38.47 18.965737 4.558346 34.126257 6.668529
2003-06-17 07:42:49 51°9.5 2°38.45 18.952594 4.557291 34.125727 6.533691
2003-06-17 07:42:53 51°9.49 2°38.42 19.144272 4.556237 34.132928 6.533691
2003-06-17 07:42:57 51°9.48 2°38.4 19.144272 4.556237 34.132928 6.533691
2003-06-17 07:43:05 51°9.47 2°38.36 19.270649 4.555076 34.132706 6.466272
2003-06-17 07:43:09 51°9.47 2°38.33 18.820867 4.553283 34.130145 6.365144
2003-06-17 07:43:13 51°9.46 2°38.31 18.750173 4.5536 34.14352 6.297725
2003-06-17 07:43:19 51°9.46 2°38.28 18.974976 4.552017 34.142141 6.129178
2003-06-17 07:43:25 51°9.45 2°38.24 19.061603 4.551068 34.14489 6.129178
2003-06-17 07:43:29 51°9.45 2°38.22 19.061603 4.551068 34.14489 6.129178
2003-06-17 07:43:33 51°9.44 2°38.2 19.044089 4.550541 34.150593 5.994341
2003-06-17 07:43:37 51°9.44 2°38.18 18.825476 4.54938 34.146204 5.926922
2003-06-17 07:43:45 51°9.43 2°38.14 18.841193 4.54822 34.145395 5.825794
2003-06-17 07:43:49 51°9.43 2°38.11 18.93115 4.548009 34.151378 5.792084
2003-06-17 07:43:53 51°9.42 2°38.09 19.055779 4.546637 34.148198 5.724665
2003-06-17 07:43:57 51°9.42 2°38.07 19.055779 4.546637 34.148198 5.724665
2003-06-17 07:44:05 51°9.41 2°38.03 18.94672 4.54611 34.154509 5.657247
2003-06-17 07:44:09 51°9.41 2°38.01 18.808561 4.545477 34.158144 5.623537
2003-06-17 07:44:13 51°9.4 2°37.99 18.87089 4.544528 34.161507 5.522409
2003-06-17 07:44:19 51°9.4 2°37.96 18.696765 4.54284 34.164038 5.522409
2003-06-17 07:44:25 51°9.39 2°37.93 18.964956 4.541047 34.1591 5.522409
2003-06-17 07:44:29 51°9.39 2°37.91 18.964956 4.541047 34.1591 5.522409
2003-06-17 07:44:33 51°9.38 2°37.89 18.719435 4.541785 34.174303 5.387571
2003-06-17 07:44:39 51°9.38 2°37.86 18.784602 4.540414 34.171128 5.421281
2003-06-17 07:44:45 51°9.37 2°37.83 18.913809 4.539465 34.169113 5.421281
2003-06-17 07:44:49 51°9.37 2°37.81 18.836585 4.538515 34.168297 5.387571
2003-06-17 07:44:53 51°9.37 2°37.79 18.792549 4.538937 34.173654 5.387571
2003-06-17 07:44:57 51°9.36 2°37.77 18.792549 4.538937 34.173654 5.387571
2003-06-17 07:45:05 51°9.35 2°37.73 18.681551 4.537566 34.16868 5.320153
2003-06-17 07:45:09 51°9.35 2°37.71 18.738596 4.536616 34.165467 5.320153
2003-06-17 07:45:13 51°9.35 2°37.7 18.996571 4.536511 34.169373 5.252734
2003-06-17 07:45:17 51°9.34 2°37.68 18.648968 4.535456 34.16407 5.084187
2003-06-17 07:45:25 51°9.33 2°37.65 18.875825 4.535983 34.173318 5.050477
2003-06-17 07:45:29 51°9.33 2°37.63 18.875825 4.535983 34.173318 5.050477
2003-06-17 07:45:33 51°9.33 2°37.62 18.734147 4.535034 34.173104 4.949349
2003-06-17 07:45:37 51°9.32 2°37.6 18.661962 4.535034 34.180306 4.949349
2003-06-17 07:45:45 51°9.32 2°37.57 18.630649 4.533768 34.178623 4.848221
2003-06-17 07:45:49 51°9.31 2°37.56 18.83099 4.533979 34.187612 4.814512
2003-06-17 07:45:53 51°9.31 2°37.55 18.723309 4.532397 34.18506 4.780802
2003-06-17 07:45:57 51°9.31 2°37.53 18.723309 4.532397 34.18506 4.780802
2003-06-17 07:46:05 51°9.3 2°37.51 18.721784 4.532292 34.192584 4.780802
2003-06-17 07:46:09 51°9.3 2°37.5 18.652062 4.530709 34.185825 4.747093
2003-06-17 07:46:13 51°9.3 2°37.49 18.645503 4.529443 34.178734 4.713383
2003-06-17 07:46:19 51°9.29 2°37.47 19.014794 4.529443 34.181139 4.713383
2003-06-17 07:46:25 51°9.29 2°37.45 18.70942 3.835122 28.395321 4.713383
2003-06-17 07:46:29 51°9.29 2°37.44 18.70942 3.835122 28.395321 4.713383
2003-06-17 07:46:33 51°9.29 2°37.43 18.601675 4.529338 34.186261 4.713383
2003-06-17 07:46:37 51°9.29 2°37.42 18.714613 4.529338 34.188667 4.713383
2003-06-17 07:46:45 51°9.28 2°37.4 18.459686 4.5286 34.186635 4.679674
2003-06-17 07:46:49 51°9.28 2°37.39 18.600685 4.527861 34.182798 4.713383
2003-06-17 07:46:53 51°9.28 2°37.38 18.812513 4.528178 34.188482 4.645965
2003-06-17 07:46:57 51°9.28 2°37.37 18.812513 4.528178 34.188482 4.645965
2003-06-17 07:47:05 51°9.27 2°37.36 18.617938 4.527545 34.188546 4.679674
2003-06-17 07:47:09 51°9.27 2°37.35 18.65759 4.527228 34.188879 4.645965
2003-06-17 07:47:13 51°9.27 2°37.34 18.697796 4.526701 34.186825 4.612255
2003-06-17 07:47:19 51°9.26 2°37.33 18.634652 4.527017 34.191911 4.645965
2003-06-17 07:47:25 51°9.26 2°37.31 18.601221 4.526173 34.184772 4.645965
2003-06-17 07:47:29 51°9.26 2°37.31 18.601221 4.526173 34.184772 4.645965
2003-06-17 07:47:33 51°9.26 2°37.3 18.633991 4.526279 34.180848 4.645965
2003-06-17 07:47:39 51°9.25 2°37.29 18.866572 4.527228 34.184666 4.679674
2003-06-17 07:47:45 51°9.25 2°37.28 18.802181 4.526806 34.177487 4.645965
2003-06-17 07:47:49 51°9.25 2°37.27 18.629535 4.526701 34.171181 4.679674
2003-06-17 07:47:53 51°9.24 2°37.27 18.582146 4.526806 34.169668 4.645965
2003-06-17 07:47:57 51°9.24 2°37.26 18.582146 4.526806 34.169668 4.645965
2003-06-17 07:48:05 51°9.24 2°37.25 18.544642 4.527017 34.169047 4.645965
2003-06-17 07:48:09 51°9.23 2°37.25 18.439041 4.528916 34.183295 4.679674
2003-06-17 07:48:13 51°9.23 2°37.24 18.615091 4.528494 34.181532 4.612255
2003-06-17 07:48:17 51°9.23 2°37.24 18.464857 4.528283 34.177944 4.612255
2003-06-17 07:48:25 51°9.22 2°37.23 18.550426 4.528283 34.180951 4.409999
2003-06-17 07:48:29 51°9.22 2°37.22 18.550426 4.528283 34.180951 4.409999
2003-06-17 07:48:33 51°9.22 2°37.22 18.807285 4.527861 34.198448 4.207742
2003-06-17 07:48:37 51°9.21 2°37.22 18.492482 4.526174 34.214901 3.971777
2003-06-17 07:48:45 51°9.21 2°37.21 18.516128 4.523642 34.229675 3.870648
2003-06-17 07:48:49 51°9.2 2°37.21 18.40709 4.520583 34.229126 3.80323
2003-06-17 07:48:53 51°9.2 2°37.2 18.608363 4.519107 34.236562 3.735811
2003-06-17 07:48:57 51°9.2 2°37.2 18.608363 4.519107 34.236562 3.735811
2003-06-17 07:49:05 51°9.19 2°37.2 18.32897 4.517419 34.240402 3.735811
2003-06-17 07:49:09 51°9.19 2°37.19 18.663777 4.516364 34.243562 3.702101
2003-06-17 07:49:13 51°9.19 2°37.19 18.321303 4.515415 34.247016 3.735811
2003-06-17 07:49:19 51°9.18 2°37.19 18.556374 4.513727 34.245412 3.668392
2003-06-17 07:49:25 51°9.18 2°37.19 18.755157 4.512567 34.244043 3.668392
2003-06-17 07:49:29 51°9.18 2°37.18 18.755157 4.512567 34.244043 3.668392
2003-06-17 07:49:33 51°9.17 2°37.18 18.551045 4.511195 34.238454 3.668392
2003-06-17 07:49:37 51°9.17 2°37.18 18.51464 4.511195 34.241489 3.600973
2003-06-17 07:49:45 51°9.17 2°37.18 18.450254 4.510246 34.239486 3.600973
2003-06-17 07:49:49 51°9.16 2°37.18 18.45679 4.509508 34.237456 3.600973
2003-06-17 07:49:53 51°9.16 2°37.17 18.42733 4.509719 34.2435 3.533554
2003-06-17 07:49:57 51°9.16 2°37.17 18.42733 4.509719 34.2435 3.533554
2003-06-17 07:50:05 51°9.16 2°37.17 18.739256 4.508875 34.238752 3.600973
2003-06-17 07:50:09 51°9.15 2°37.17 18.617732 4.508453 34.238807 3.600973
2003-06-17 07:50:13 51°9.15 2°37.17 18.623593 4.50782 34.235245 3.634683
2003-06-17 07:50:19 51°9.15 2°37.17 18.256903 4.508031 34.238861 3.634683
2003-06-17 07:50:25 51°9.14 2°37.17 18.709544 4.508136 34.237937 3.668392
2003-06-17 07:50:29 51°9.14 2°37.17 18.709544 4.508136 34.237937 3.668392
2003-06-17 07:50:33 51°9.14 2°37.17 18.709049 4.507609 34.230415 3.668392
2003-06-17 07:50:39 51°9.14 2°37.17 18.534023 4.508347 34.230017 3.702101
2003-06-17 07:50:45 51°9.13 2°37.17 18.466387 4.509296 34.232021 3.76952
2003-06-17 07:50:49 51°9.13 2°37.17 18.503024 4.509402 34.228064 3.735811
2003-06-17 07:50:53 51°9.13 2°37.17 18.844772 4.510035 34.227985 3.76952
2003-06-17 07:50:57 51°9.13 2°37.17 18.844772 4.510035 34.227985 3.76952
2003-06-17 07:51:05 51°9.13 2°37.17 18.567857 4.51014 34.22221 3.76952
2003-06-17 07:51:09 51°9.12 2°37.17 18.656022 4.510562 34.222158 3.76952
2003-06-17 07:51:13 51°9.12 2°37.17 18.392019 4.51109 34.224822 3.836939
2003-06-17 07:51:17 51°9.12 2°37.17 18.69458 4.51109 34.22664 3.836939
2003-06-17 07:51:25 51°9.12 2°37.17 18.525014 4.510984 34.223925 3.76952
2003-06-17 07:51:29 51°9.12 2°37.17 18.525014 4.510984 34.223925 3.76952
2003-06-17 07:51:33 51°9.12 2°37.17 18.598868 4.510984 34.222107 3.836939
2003-06-17 07:51:37 51°9.12 2°37.17 18.460307 4.511933 34.224112 3.938067
2003-06-17 07:51:45 51°9.11 2°37.17 18.659198 4.5113 34.216311 3.870648
2003-06-17 07:51:49 51°9.11 2°37.17 18.726606 4.512144 34.219239 3.870648
2003-06-17 07:51:53 51°9.11 2°37.17 18.731509 4.512144 34.217421 3.870648
2003-06-17 07:51:59 51°9.11 2°37.17 18.731509 4.512144 34.217421 3.870648
2003-06-17 07:52:05 51°9.11 2°37.18 18.669963 4.509718 34.194394 3.836939
2003-06-17 07:52:09 51°9.11 2°37.18 18.536295 4.50919 34.19052 3.870648
2003-06-17 07:52:13 51°9.11 2°37.18 18.875619 4.508874 34.186018 3.870648
2003-06-17 07:52:17 51°9.11 2°37.18 18.578182 4.511617 34.209913 3.870648
2003-06-17 07:52:25 51°9.11 2°37.18 18.418018 4.511933 34.213207 3.904358
2003-06-17 07:52:29 51°9.11 2°37.18 18.418018 4.511933 34.213207 3.904358
2003-06-17 07:52:35 51°9.11 2°37.18 18.696806 4.510667 34.203062 3.904358
2003-06-17 07:52:37 51°9.11 2°37.18 18.70435 4.510667 34.200035 3.904358
2003-06-17 07:52:45 51°9.1 2°37.18 18.700558 4.509823 34.190448 3.938067
2003-06-17 07:52:49 51°9.1 2°37.18 18.622437 4.510773 34.196694 3.938067
2003-06-17 07:52:53 51°9.1 2°37.18 18.622313 4.510245 34.18798 3.971777
2003-06-17 07:52:59 51°9.1 2°37.18 18.622313 4.510245 34.18798 3.971777
2003-06-17 07:53:05 51°9.1 2°37.19 18.863652 4.510667 34.186723 3.971777
2003-06-17 07:53:09 51°9.1 2°37.19 18.697837 4.51035 34.180409 4.106614
2003-06-17 07:53:13 51°9.1 2°37.19 18.497236 4.514359 34.206566 3.971777
2003-06-17 07:53:19 51°9.11 2°37.19 18.536378 4.511616 34.181478 3.971777
2003-06-17 07:53:25 51°9.11 2°37.19 18.514557 4.510983 34.178525 3.938067
2003-06-17 07:53:29 51°9.11 2°37.19 18.514557 4.510983 34.178525 3.938067
2003-06-17 07:53:33 51°9.11 2°37.19 18.581196 4.513515 34.201824 3.971777
2003-06-17 07:53:39 51°9.11 2°37.19 18.816505 4.511827 34.185082 4.005486
2003-06-17 07:53:45 51°9.11 2°37.19 18.652103 4.514781 34.209542 3.971777
2003-06-17 07:53:49 51°9.11 2°37.19 18.423481 4.515309 34.212808 4.072905
2003-06-17 07:53:53 51°9.11 2°37.19 18.597382 4.512249 34.183222 4.005486
2003-06-17 07:53:59 51°9.11 2°37.19 18.597382 4.512249 34.183222 4.005486
2003-06-17 07:54:05 51°9.11 2°37.19 18.668396 4.513304 34.18915 4.072905
2003-06-17 07:54:09 51°9.11 2°37.19 18.467462 4.513093 34.182525 4.106614
2003-06-17 07:54:15 51°9.11 2°37.19 18.646617 4.514781 34.195029 4.140324
2003-06-17 07:54:19 51°9.11 2°37.19 18.583839 4.51457 34.190822 4.106614
2003-06-17 07:54:25 51°9.12 2°37.2 18.786044 4.513304 34.176461 4.106614
2003-06-17 07:54:29 51°9.12 2°37.2 18.786044 4.513304 34.176461 4.106614
2003-06-17 07:54:33 51°9.12 2°37.2 18.612821 4.513831 34.179123 4.106614
2003-06-17 07:54:37 51°9.12 2°37.2 18.74663 4.513726 34.171586 4.106614
2003-06-17 07:54:45 51°9.12 2°37.2 18.714696 4.514781 34.177511 4.072905
2003-06-17 07:54:49 51°9.12 2°37.2 18.473129 4.514781 34.173889 4.106614
2003-06-17 07:54:53 51°9.12 2°37.2 18.949555 4.515414 34.17503 4.039195
2003-06-17 07:54:57 51°9.12 2°37.2 18.949555 4.515414 34.17503 4.039195
2003-06-17 07:55:05 51°9.12 2°37.2 18.482144 4.516891 34.18453 4.039195
2003-06-17 07:55:09 51°9.12 2°37.2 18.884541 4.518684 34.199731 3.971777
2003-06-17 07:55:13 51°9.12 2°37.2 18.651608 4.519106 34.203308 4.106614
2003-06-17 07:55:17 51°9.12 2°37.21 18.82313 4.519845 34.209568 4.039195
2003-06-17 07:55:25 51°9.12 2°37.21 18.78415 4.519106 34.203912 4.039195
2003-06-17 07:55:29 51°9.13 2°37.21 18.78415 4.519106 34.203912 4.039195
2003-06-17 07:55:33 51°9.13 2°37.21 18.780444 4.518684 34.200939 4.140324
2003-06-17 07:55:39 51°9.13 2°37.21 18.473377 4.519423 34.206595 4.072905
2003-06-17 07:55:45 51°9.13 2°37.21 18.436103 4.519528 34.205677 4.106614
2003-06-17 07:55:49 51°9.13 2°37.22 18.676685 4.519423 34.202367 4.207742
2003-06-17 07:55:53 51°9.13 2°37.22 18.748978 4.519528 34.202658 4.106614
2003-06-17 07:55:57 51°9.13 2°37.22 18.748978 4.519528 34.202658 4.106614
2003-06-17 07:56:05 51°9.13 2°37.22 19.021278 4.519528 34.203865 4.207742
2003-06-17 07:56:09 51°9.13 2°37.22 18.478133 4.51879 34.199418 4.140324
2003-06-17 07:56:13 51°9.13 2°37.22 18.719353 4.519212 34.203598 4.174033
2003-06-17 07:56:17 51°9.13 2°37.23 18.858264 4.519317 34.206305 4.106614
2003-06-17 07:56:25 51°9.13 2°37.23 18.619961 4.519106 34.205724 4.140324
2003-06-17 07:56:29 51°9.13 2°37.23 18.619961 4.519106 34.205724 4.140324
2003-06-17 07:56:33 51°9.13 2°37.23 18.692024 4.517735 34.192891 4.174033
2003-06-17 07:56:39 51°9.13 2°37.24 18.726235 4.519739 34.206862 4.174033
2003-06-17 07:56:45 51°9.13 2°37.24 18.628627 4.518895 34.200312 4.174033
2003-06-17 07:56:49 51°9.13 2°37.24 18.594698 4.519317 34.202681 4.241452
2003-06-17 07:56:53 51°9.13 2°37.24 18.632176 4.519739 34.203842 4.207742
2003-06-17 07:56:59 51°9.13 2°37.24 18.632176 4.519739 34.203842 4.207742
2003-06-17 07:57:05 51°9.13 2°37.25 18.53832 4.519739 34.20203 4.241452
2003-06-17 07:57:09 51°9.13 2°37.25 18.642697 4.51995 34.202611 4.241452
2003-06-17 07:57:13 51°9.13 2°37.25 18.852012 4.520055 34.20109 4.174033
2003-06-17 07:57:17 51°9.13 2°37.25 18.986308 4.520688 34.20585 4.308871
2003-06-17 07:57:25 51°9.13 2°37.26 18.777973 4.520266 34.201067 4.275161
2003-06-17 07:57:29 51°9.13 2°37.26 18.777973 4.520266 34.201067 4.275161
2003-06-17 07:57:33 51°9.13 2°37.26 18.782873 4.519844 34.19387 4.308871
2003-06-17 07:57:37 51°9.13 2°37.26 18.514103 4.520266 34.194428 4.308871
2003-06-17 07:57:45 51°9.13 2°37.26 18.684396 4.520583 34.191075 4.308871
2003-06-17 07:57:49 51°9.13 2°37.27 18.922562 4.521532 34.198515 4.34258
2003-06-17 07:57:53 51°9.13 2°37.27 19.025422 4.521532 34.194292 4.308871
2003-06-17 07:57:57 51°9.13 2°37.27 19.025422 4.521532 34.194292 4.308871
2003-06-17 07:58:05 51°9.12 2°37.27 18.658085 4.521216 34.193421 4.376289
2003-06-17 07:58:09 51°9.12 2°37.27 18.727677 4.521849 34.198782 4.34258
2003-06-17 07:58:13 51°9.12 2°37.28 18.729985 4.521427 34.192795 4.34258
2003-06-17 07:58:19 51°9.12 2°37.28 18.732869 4.521638 34.193376 4.409999
2003-06-17 07:58:25 51°9.12 2°37.28 18.669551 4.522693 34.198692 4.376289
2003-06-17 07:58:29 51°9.12 2°37.28 18.669551 4.522693 34.198692 4.376289
2003-06-17 07:58:33 51°9.12 2°37.28 18.602418 4.521954 34.191835 4.376289
2003-06-17 07:58:37 51°9.12 2°37.29 18.834322 4.522376 34.195408 4.376289
2003-06-17 07:58:45 51°9.12 2°37.29 18.871548 4.522798 34.19476 4.409999
2003-06-17 07:58:49 51°9.12 2°37.29 18.673345 4.522481 34.190875 4.409999
2003-06-17 07:58:55 51°9.12 2°37.29 18.606794 4.522798 34.192349 4.409999
2003-06-17 07:58:57 51°9.12 2°37.29 18.606794 4.522798 34.192349 4.409999
2003-06-17 07:59:05 51°9.12 2°37.3 18.608982 4.522481 34.186052 4.376289
2003-06-17 07:59:09 51°9.12 2°37.3 18.850202 4.523325 34.193197 4.443708
2003-06-17 07:59:13 51°9.12 2°37.3 18.752233 4.523114 34.190205 4.376289
2003-06-17 07:59:19 51°9.12 2°37.3 18.484088 4.523747 34.195564 4.443708
2003-06-17 07:59:25 51°9.12 2°37.3 18.624707 4.523853 34.19706 4.477418
2003-06-17 07:59:29 51°9.12 2°37.3 18.624707 4.523853 34.19706 4.477418
2003-06-17 07:59:33 51°9.12 2°37.3 18.796501 4.523747 34.193756 4.409999
2003-06-17 07:59:39 51°9.12 2°37.31 18.865955 4.52322 34.188085 4.443708
2003-06-17 07:59:45 51°9.12 2°37.31 18.735135 4.523431 34.18505 4.409999
2003-06-17 07:59:49 51°9.12 2°37.31 18.701135 4.523853 34.18802 4.443708
2003-06-17 07:59:53 51°9.12 2°37.31 18.899423 4.524591 34.19186 4.477418
2003-06-17 07:59:59 51°9.13 2°37.31 18.899423 4.524591 34.19186 4.477418
2003-06-17 08:00:05 51°9.13 2°37.31 18.731427 4.523853 34.181995 4.477418
2003-06-17 08:00:09 51°9.13 2°37.31 18.83424 4.524486 34.184942 4.443708
2003-06-17 08:00:13 51°9.13 2°37.31 18.772702 4.524275 34.180748 4.443708
2003-06-17 08:00:19 51°9.13 2°37.32 18.88043 4.524485 34.178921 4.443708
2003-06-17 08:00:25 51°9.13 2°37.32 18.78312 4.525857 34.188115 4.477418
2003-06-17 08:00:29 51°9.13 2°37.32 18.78312 4.525857 34.188115 4.477418
2003-06-17 08:00:35 51°9.13 2°37.32 18.950992 4.525118 34.183674 4.409999
2003-06-17 08:00:39 51°9.13 2°37.32 18.849997 4.524907 34.182491 4.443708
2003-06-17 08:00:45 51°9.13 2°37.32 18.614306 4.525329 34.186061 4.443708
2003-06-17 08:00:49 51°9.13 2°37.32 18.815229 4.525118 34.180061 4.443708
2003-06-17 08:00:53 51°9.13 2°37.32 18.916686 4.526173 34.184772 4.443708
2003-06-17 08:00:57 51°9.13 2°37.33 18.916686 4.526173 34.184772 4.443708
2003-06-17 08:01:05 51°9.13 2°37.33 18.613481 4.526279 34.182654 4.544836
2003-06-17 08:01:09 51°9.13 2°37.33 18.714407 4.525962 34.178774 4.409999
2003-06-17 08:01:13 51°9.13 2°37.33 18.750502 4.526173 34.178753 4.477418
2003-06-17 08:01:17 51°9.13 2°37.33 19.089485 4.526068 34.176055 4.409999
2003-06-17 08:01:25 51°9.13 2°37.33 18.856331 4.525751 34.176989 4.477418